<?xml version="1.0" encoding="UTF-8" standalone="no" ?>
<gpx xmlns="http://www.topografix.com/GPX/1/1" creator="www.cicloide.com" version="1.1" xmlns:xsi="http://www.w3.org/2001/XMLSchema-instance" xsi:schemaLocation="http://www.topografix.com/GPX/1/1 http://www.topografix.com/GPX/1/1/gpx.xsd">
  <trk>
    <name>www.cicloide.com 12825</name>
    <desc>www.cicloide.com 12825</desc>
    <trkseg>
      <trkpt lat="41.243800000" lon="0.901573000">
        <ele>407.00</ele>
        <time>2013-03-29T11:36:49Z</time>
      </trkpt>
      <trkpt lat="41.243612000" lon="0.901666000">
        <ele>407.00</ele>
        <time>2013-03-29T11:37:42Z</time>
      </trkpt>
      <trkpt lat="41.243520000" lon="0.901532000">
        <ele>407.00</ele>
        <time>2013-03-29T11:37:47Z</time>
      </trkpt>
      <trkpt lat="41.243622000" lon="0.901275000">
        <ele>406.60</ele>
        <time>2013-03-29T11:37:52Z</time>
      </trkpt>
      <trkpt lat="41.243572000" lon="0.901023000">
        <ele>404.00</ele>
        <time>2013-03-29T11:37:56Z</time>
      </trkpt>
      <trkpt lat="41.243396000" lon="0.900949000">
        <ele>407.00</ele>
        <time>2013-03-29T11:38:01Z</time>
      </trkpt>
      <trkpt lat="41.243192000" lon="0.900940000">
        <ele>405.40</ele>
        <time>2013-03-29T11:38:08Z</time>
      </trkpt>
      <trkpt lat="41.243008000" lon="0.901013000">
        <ele>406.00</ele>
        <time>2013-03-29T11:38:13Z</time>
      </trkpt>
      <trkpt lat="41.242853000" lon="0.901183000">
        <ele>405.80</ele>
        <time>2013-03-29T11:38:19Z</time>
      </trkpt>
      <trkpt lat="41.242786000" lon="0.901425000">
        <ele>406.20</ele>
        <time>2013-03-29T11:38:27Z</time>
      </trkpt>
      <trkpt lat="41.242852000" lon="0.901663000">
        <ele>406.80</ele>
        <time>2013-03-29T11:38:34Z</time>
      </trkpt>
      <trkpt lat="41.242900000" lon="0.901903000">
        <ele>406.90</ele>
        <time>2013-03-29T11:38:41Z</time>
      </trkpt>
      <trkpt lat="41.242956000" lon="0.902169000">
        <ele>407.50</ele>
        <time>2013-03-29T11:38:47Z</time>
      </trkpt>
      <trkpt lat="41.243023000" lon="0.902422000">
        <ele>407.60</ele>
        <time>2013-03-29T11:38:53Z</time>
      </trkpt>
      <trkpt lat="41.243109000" lon="0.902655000">
        <ele>407.80</ele>
        <time>2013-03-29T11:38:59Z</time>
      </trkpt>
      <trkpt lat="41.243230000" lon="0.902900000">
        <ele>408.20</ele>
        <time>2013-03-29T11:39:05Z</time>
      </trkpt>
      <trkpt lat="41.243372000" lon="0.903108000">
        <ele>408.10</ele>
        <time>2013-03-29T11:39:11Z</time>
      </trkpt>
      <trkpt lat="41.243496000" lon="0.903323000">
        <ele>408.40</ele>
        <time>2013-03-29T11:39:17Z</time>
      </trkpt>
      <trkpt lat="41.243618000" lon="0.903532000">
        <ele>408.80</ele>
        <time>2013-03-29T11:39:23Z</time>
      </trkpt>
      <trkpt lat="41.243753000" lon="0.903744000">
        <ele>409.50</ele>
        <time>2013-03-29T11:39:29Z</time>
      </trkpt>
      <trkpt lat="41.243893000" lon="0.903934000">
        <ele>409.90</ele>
        <time>2013-03-29T11:39:35Z</time>
      </trkpt>
      <trkpt lat="41.244031000" lon="0.904145000">
        <ele>410.00</ele>
        <time>2013-03-29T11:39:41Z</time>
      </trkpt>
      <trkpt lat="41.244144000" lon="0.904374000">
        <ele>410.60</ele>
        <time>2013-03-29T11:39:47Z</time>
      </trkpt>
      <trkpt lat="41.244206000" lon="0.904627000">
        <ele>411.20</ele>
        <time>2013-03-29T11:39:53Z</time>
      </trkpt>
      <trkpt lat="41.244250000" lon="0.904881000">
        <ele>412.00</ele>
        <time>2013-03-29T11:39:59Z</time>
      </trkpt>
      <trkpt lat="41.244322000" lon="0.905109000">
        <ele>413.00</ele>
        <time>2013-03-29T11:40:05Z</time>
      </trkpt>
      <trkpt lat="41.244393000" lon="0.905342000">
        <ele>414.00</ele>
        <time>2013-03-29T11:40:12Z</time>
      </trkpt>
      <trkpt lat="41.244484000" lon="0.905561000">
        <ele>415.20</ele>
        <time>2013-03-29T11:40:18Z</time>
      </trkpt>
      <trkpt lat="41.244596000" lon="0.905757000">
        <ele>416.70</ele>
        <time>2013-03-29T11:40:25Z</time>
      </trkpt>
      <trkpt lat="41.244720000" lon="0.905926000">
        <ele>418.00</ele>
        <time>2013-03-29T11:40:32Z</time>
      </trkpt>
      <trkpt lat="41.244852000" lon="0.906123000">
        <ele>419.00</ele>
        <time>2013-03-29T11:40:39Z</time>
      </trkpt>
      <trkpt lat="41.244960000" lon="0.906354000">
        <ele>419.90</ele>
        <time>2013-03-29T11:40:46Z</time>
      </trkpt>
      <trkpt lat="41.245070000" lon="0.906592000">
        <ele>420.80</ele>
        <time>2013-03-29T11:40:53Z</time>
      </trkpt>
      <trkpt lat="41.245189000" lon="0.906804000">
        <ele>421.20</ele>
        <time>2013-03-29T11:41:00Z</time>
      </trkpt>
      <trkpt lat="41.245346000" lon="0.906985000">
        <ele>422.90</ele>
        <time>2013-03-29T11:41:07Z</time>
      </trkpt>
      <trkpt lat="41.245495000" lon="0.907121000">
        <ele>423.60</ele>
        <time>2013-03-29T11:41:13Z</time>
      </trkpt>
      <trkpt lat="41.245653000" lon="0.907296000">
        <ele>424.90</ele>
        <time>2013-03-29T11:41:20Z</time>
      </trkpt>
      <trkpt lat="41.245692000" lon="0.907548000">
        <ele>426.70</ele>
        <time>2013-03-29T11:41:27Z</time>
      </trkpt>
      <trkpt lat="41.245713000" lon="0.907829000">
        <ele>427.80</ele>
        <time>2013-03-29T11:41:34Z</time>
      </trkpt>
      <trkpt lat="41.245837000" lon="0.908021000">
        <ele>428.70</ele>
        <time>2013-03-29T11:41:40Z</time>
      </trkpt>
      <trkpt lat="41.246012000" lon="0.908045000">
        <ele>426.80</ele>
        <time>2013-03-29T11:41:46Z</time>
      </trkpt>
      <trkpt lat="41.246176000" lon="0.907887000">
        <ele>429.40</ele>
        <time>2013-03-29T11:41:53Z</time>
      </trkpt>
      <trkpt lat="41.246354000" lon="0.907783000">
        <ele>433.30</ele>
        <time>2013-03-29T11:42:00Z</time>
      </trkpt>
      <trkpt lat="41.246529000" lon="0.907920000">
        <ele>435.30</ele>
        <time>2013-03-29T11:42:07Z</time>
      </trkpt>
      <trkpt lat="41.246628000" lon="0.908147000">
        <ele>436.70</ele>
        <time>2013-03-29T11:42:15Z</time>
      </trkpt>
      <trkpt lat="41.246700000" lon="0.908384000">
        <ele>438.20</ele>
        <time>2013-03-29T11:42:23Z</time>
      </trkpt>
      <trkpt lat="41.246738000" lon="0.908613000">
        <ele>439.50</ele>
        <time>2013-03-29T11:42:30Z</time>
      </trkpt>
      <trkpt lat="41.246758000" lon="0.908844000">
        <ele>440.70</ele>
        <time>2013-03-29T11:42:37Z</time>
      </trkpt>
      <trkpt lat="41.246794000" lon="0.909090000">
        <ele>441.80</ele>
        <time>2013-03-29T11:42:44Z</time>
      </trkpt>
      <trkpt lat="41.246820000" lon="0.909340000">
        <ele>442.90</ele>
        <time>2013-03-29T11:42:51Z</time>
      </trkpt>
      <trkpt lat="41.246848000" lon="0.909597000">
        <ele>444.40</ele>
        <time>2013-03-29T11:42:58Z</time>
      </trkpt>
      <trkpt lat="41.246857000" lon="0.909858000">
        <ele>445.20</ele>
        <time>2013-03-29T11:43:05Z</time>
      </trkpt>
      <trkpt lat="41.246825000" lon="0.910115000">
        <ele>446.30</ele>
        <time>2013-03-29T11:43:12Z</time>
      </trkpt>
      <trkpt lat="41.246746000" lon="0.910360000">
        <ele>447.30</ele>
        <time>2013-03-29T11:43:19Z</time>
      </trkpt>
      <trkpt lat="41.246643000" lon="0.910591000">
        <ele>448.10</ele>
        <time>2013-03-29T11:43:26Z</time>
      </trkpt>
      <trkpt lat="41.246529000" lon="0.910828000">
        <ele>449.20</ele>
        <time>2013-03-29T11:43:33Z</time>
      </trkpt>
      <trkpt lat="41.246459000" lon="0.911067000">
        <ele>450.30</ele>
        <time>2013-03-29T11:43:40Z</time>
      </trkpt>
      <trkpt lat="41.246530000" lon="0.911316000">
        <ele>450.80</ele>
        <time>2013-03-29T11:43:47Z</time>
      </trkpt>
      <trkpt lat="41.246727000" lon="0.911411000">
        <ele>452.20</ele>
        <time>2013-03-29T11:43:54Z</time>
      </trkpt>
      <trkpt lat="41.246912000" lon="0.911374000">
        <ele>453.10</ele>
        <time>2013-03-29T11:44:00Z</time>
      </trkpt>
      <trkpt lat="41.247108000" lon="0.911393000">
        <ele>454.80</ele>
        <time>2013-03-29T11:44:07Z</time>
      </trkpt>
      <trkpt lat="41.247277000" lon="0.911570000">
        <ele>456.80</ele>
        <time>2013-03-29T11:44:14Z</time>
      </trkpt>
      <trkpt lat="41.247429000" lon="0.911760000">
        <ele>458.50</ele>
        <time>2013-03-29T11:44:21Z</time>
      </trkpt>
      <trkpt lat="41.247508000" lon="0.911982000">
        <ele>460.30</ele>
        <time>2013-03-29T11:44:28Z</time>
      </trkpt>
      <trkpt lat="41.247488000" lon="0.912234000">
        <ele>461.80</ele>
        <time>2013-03-29T11:44:35Z</time>
      </trkpt>
      <trkpt lat="41.247411000" lon="0.912493000">
        <ele>463.20</ele>
        <time>2013-03-29T11:44:42Z</time>
      </trkpt>
      <trkpt lat="41.247389000" lon="0.912749000">
        <ele>464.20</ele>
        <time>2013-03-29T11:44:49Z</time>
      </trkpt>
      <trkpt lat="41.247534000" lon="0.912951000">
        <ele>464.30</ele>
        <time>2013-03-29T11:44:56Z</time>
      </trkpt>
      <trkpt lat="41.247656000" lon="0.913165000">
        <ele>464.80</ele>
        <time>2013-03-29T11:45:02Z</time>
      </trkpt>
      <trkpt lat="41.247701000" lon="0.913398000">
        <ele>464.60</ele>
        <time>2013-03-29T11:45:07Z</time>
      </trkpt>
      <trkpt lat="41.247735000" lon="0.913675000">
        <ele>463.80</ele>
        <time>2013-03-29T11:45:12Z</time>
      </trkpt>
      <trkpt lat="41.247850000" lon="0.913857000">
        <ele>463.80</ele>
        <time>2013-03-29T11:45:16Z</time>
      </trkpt>
      <trkpt lat="41.248024000" lon="0.913921000">
        <ele>463.60</ele>
        <time>2013-03-29T11:45:20Z</time>
      </trkpt>
      <trkpt lat="41.248212000" lon="0.914002000">
        <ele>463.50</ele>
        <time>2013-03-29T11:45:25Z</time>
      </trkpt>
      <trkpt lat="41.248384000" lon="0.914149000">
        <ele>464.60</ele>
        <time>2013-03-29T11:45:31Z</time>
      </trkpt>
      <trkpt lat="41.248510000" lon="0.914351000">
        <ele>466.60</ele>
        <time>2013-03-29T11:45:37Z</time>
      </trkpt>
      <trkpt lat="41.248616000" lon="0.914542000">
        <ele>467.10</ele>
        <time>2013-03-29T11:45:42Z</time>
      </trkpt>
      <trkpt lat="41.248703000" lon="0.914601000">
        <ele>466.00</ele>
        <time>2013-03-29T11:45:50Z</time>
      </trkpt>
      <trkpt lat="41.248703000" lon="0.914755000">
        <ele>468.00</ele>
        <time>2013-03-29T11:45:58Z</time>
      </trkpt>
      <trkpt lat="41.248895000" lon="0.914834000">
        <ele>469.00</ele>
        <time>2013-03-29T11:46:04Z</time>
      </trkpt>
      <trkpt lat="41.249026000" lon="0.915034000">
        <ele>468.60</ele>
        <time>2013-03-29T11:46:10Z</time>
      </trkpt>
      <trkpt lat="41.249028000" lon="0.915275000">
        <ele>469.70</ele>
        <time>2013-03-29T11:46:15Z</time>
      </trkpt>
      <trkpt lat="41.248934000" lon="0.915510000">
        <ele>471.20</ele>
        <time>2013-03-29T11:46:22Z</time>
      </trkpt>
      <trkpt lat="41.248779000" lon="0.915647000">
        <ele>474.90</ele>
        <time>2013-03-29T11:46:31Z</time>
      </trkpt>
      <trkpt lat="41.248653000" lon="0.915812000">
        <ele>476.90</ele>
        <time>2013-03-29T11:46:40Z</time>
      </trkpt>
      <trkpt lat="41.248505000" lon="0.915946000">
        <ele>480.00</ele>
        <time>2013-03-29T11:46:49Z</time>
      </trkpt>
      <trkpt lat="41.248326000" lon="0.916000000">
        <ele>482.10</ele>
        <time>2013-03-29T11:46:58Z</time>
      </trkpt>
      <trkpt lat="41.248147000" lon="0.916090000">
        <ele>484.90</ele>
        <time>2013-03-29T11:47:07Z</time>
      </trkpt>
      <trkpt lat="41.248024000" lon="0.916278000">
        <ele>482.30</ele>
        <time>2013-03-29T11:47:12Z</time>
      </trkpt>
      <trkpt lat="41.247861000" lon="0.916480000">
        <ele>482.20</ele>
        <time>2013-03-29T11:47:16Z</time>
      </trkpt>
      <trkpt lat="41.247648000" lon="0.916697000">
        <ele>481.60</ele>
        <time>2013-03-29T11:47:20Z</time>
      </trkpt>
      <trkpt lat="41.247403000" lon="0.917031000">
        <ele>474.50</ele>
        <time>2013-03-29T11:47:25Z</time>
      </trkpt>
      <trkpt lat="41.247405000" lon="0.917353000">
        <ele>474.90</ele>
        <time>2013-03-29T11:47:35Z</time>
      </trkpt>
      <trkpt lat="41.247598000" lon="0.917252000">
        <ele>473.10</ele>
        <time>2013-03-29T11:47:41Z</time>
      </trkpt>
      <trkpt lat="41.247769000" lon="0.917168000">
        <ele>472.10</ele>
        <time>2013-03-29T11:47:45Z</time>
      </trkpt>
      <trkpt lat="41.247959000" lon="0.917101000">
        <ele>471.00</ele>
        <time>2013-03-29T11:47:49Z</time>
      </trkpt>
      <trkpt lat="41.248156000" lon="0.917049000">
        <ele>470.10</ele>
        <time>2013-03-29T11:48:32Z</time>
      </trkpt>
      <trkpt lat="41.248383000" lon="0.917029000">
        <ele>467.40</ele>
        <time>2013-03-29T11:48:38Z</time>
      </trkpt>
      <trkpt lat="41.248560000" lon="0.916973000">
        <ele>466.00</ele>
        <time>2013-03-29T11:48:42Z</time>
      </trkpt>
      <trkpt lat="41.248759000" lon="0.916973000">
        <ele>465.50</ele>
        <time>2013-03-29T11:48:47Z</time>
      </trkpt>
      <trkpt lat="41.248943000" lon="0.916988000">
        <ele>466.40</ele>
        <time>2013-03-29T11:48:52Z</time>
      </trkpt>
      <trkpt lat="41.249129000" lon="0.917006000">
        <ele>466.20</ele>
        <time>2013-03-29T11:48:58Z</time>
      </trkpt>
      <trkpt lat="41.249316000" lon="0.917075000">
        <ele>467.10</ele>
        <time>2013-03-29T11:49:04Z</time>
      </trkpt>
      <trkpt lat="41.249415000" lon="0.917289000">
        <ele>469.00</ele>
        <time>2013-03-29T11:49:11Z</time>
      </trkpt>
      <trkpt lat="41.249468000" lon="0.917528000">
        <ele>471.10</ele>
        <time>2013-03-29T11:49:18Z</time>
      </trkpt>
      <trkpt lat="41.249470000" lon="0.917787000">
        <ele>472.90</ele>
        <time>2013-03-29T11:49:25Z</time>
      </trkpt>
      <trkpt lat="41.249428000" lon="0.918020000">
        <ele>474.00</ele>
        <time>2013-03-29T11:49:32Z</time>
      </trkpt>
      <trkpt lat="41.249282000" lon="0.918161000">
        <ele>472.70</ele>
        <time>2013-03-29T11:49:38Z</time>
      </trkpt>
      <trkpt lat="41.249124000" lon="0.918309000">
        <ele>471.00</ele>
        <time>2013-03-29T11:49:42Z</time>
      </trkpt>
      <trkpt lat="41.248968000" lon="0.918512000">
        <ele>470.80</ele>
        <time>2013-03-29T11:49:46Z</time>
      </trkpt>
      <trkpt lat="41.248833000" lon="0.918747000">
        <ele>471.80</ele>
        <time>2013-03-29T11:49:51Z</time>
      </trkpt>
      <trkpt lat="41.248739000" lon="0.918981000">
        <ele>474.40</ele>
        <time>2013-03-29T11:49:56Z</time>
      </trkpt>
      <trkpt lat="41.248649000" lon="0.919182000">
        <ele>477.50</ele>
        <time>2013-03-29T11:50:02Z</time>
      </trkpt>
      <trkpt lat="41.248536000" lon="0.919373000">
        <ele>476.50</ele>
        <time>2013-03-29T11:50:09Z</time>
      </trkpt>
      <trkpt lat="41.248464000" lon="0.919605000">
        <ele>477.00</ele>
        <time>2013-03-29T11:50:17Z</time>
      </trkpt>
      <trkpt lat="41.248410000" lon="0.919841000">
        <ele>478.00</ele>
        <time>2013-03-29T11:50:25Z</time>
      </trkpt>
      <trkpt lat="41.248419000" lon="0.920080000">
        <ele>478.80</ele>
        <time>2013-03-29T11:50:32Z</time>
      </trkpt>
      <trkpt lat="41.248398000" lon="0.920332000">
        <ele>479.50</ele>
        <time>2013-03-29T11:50:40Z</time>
      </trkpt>
      <trkpt lat="41.248349000" lon="0.920590000">
        <ele>479.70</ele>
        <time>2013-03-29T11:50:49Z</time>
      </trkpt>
      <trkpt lat="41.248405000" lon="0.920819000">
        <ele>481.90</ele>
        <time>2013-03-29T11:50:58Z</time>
      </trkpt>
      <trkpt lat="41.248549000" lon="0.920988000">
        <ele>481.10</ele>
        <time>2013-03-29T11:51:05Z</time>
      </trkpt>
      <trkpt lat="41.248701000" lon="0.921162000">
        <ele>479.50</ele>
        <time>2013-03-29T11:51:10Z</time>
      </trkpt>
      <trkpt lat="41.248829000" lon="0.921335000">
        <ele>479.20</ele>
        <time>2013-03-29T11:51:15Z</time>
      </trkpt>
      <trkpt lat="41.248793000" lon="0.921569000">
        <ele>476.70</ele>
        <time>2013-03-29T11:51:19Z</time>
      </trkpt>
      <trkpt lat="41.248646000" lon="0.921726000">
        <ele>472.90</ele>
        <time>2013-03-29T11:51:22Z</time>
      </trkpt>
      <trkpt lat="41.248473000" lon="0.921952000">
        <ele>467.60</ele>
        <time>2013-03-29T11:51:25Z</time>
      </trkpt>
      <trkpt lat="41.248306000" lon="0.922232000">
        <ele>464.70</ele>
        <time>2013-03-29T11:51:28Z</time>
      </trkpt>
      <trkpt lat="41.248204000" lon="0.922438000">
        <ele>464.90</ele>
        <time>2013-03-29T11:51:30Z</time>
      </trkpt>
      <trkpt lat="41.248070000" lon="0.922732000">
        <ele>465.60</ele>
        <time>2013-03-29T11:51:33Z</time>
      </trkpt>
      <trkpt lat="41.247972000" lon="0.922972000">
        <ele>466.80</ele>
        <time>2013-03-29T11:51:36Z</time>
      </trkpt>
      <trkpt lat="41.247887000" lon="0.923224000">
        <ele>469.00</ele>
        <time>2013-03-29T11:51:40Z</time>
      </trkpt>
      <trkpt lat="41.247759000" lon="0.923387000">
        <ele>470.50</ele>
        <time>2013-03-29T11:51:45Z</time>
      </trkpt>
      <trkpt lat="41.247558000" lon="0.923449000">
        <ele>470.00</ele>
        <time>2013-03-29T11:51:51Z</time>
      </trkpt>
      <trkpt lat="41.247388000" lon="0.923603000">
        <ele>468.10</ele>
        <time>2013-03-29T11:51:57Z</time>
      </trkpt>
      <trkpt lat="41.247511000" lon="0.923786000">
        <ele>467.60</ele>
        <time>2013-03-29T11:52:02Z</time>
      </trkpt>
      <trkpt lat="41.247587000" lon="0.924013000">
        <ele>468.10</ele>
        <time>2013-03-29T11:52:07Z</time>
      </trkpt>
      <trkpt lat="41.247595000" lon="0.924283000">
        <ele>466.90</ele>
        <time>2013-03-29T11:52:12Z</time>
      </trkpt>
      <trkpt lat="41.247576000" lon="0.924545000">
        <ele>465.90</ele>
        <time>2013-03-29T11:52:16Z</time>
      </trkpt>
      <trkpt lat="41.247606000" lon="0.924803000">
        <ele>466.70</ele>
        <time>2013-03-29T11:52:20Z</time>
      </trkpt>
      <trkpt lat="41.247633000" lon="0.925054000">
        <ele>467.80</ele>
        <time>2013-03-29T11:52:25Z</time>
      </trkpt>
      <trkpt lat="41.247640000" lon="0.925311000">
        <ele>467.80</ele>
        <time>2013-03-29T11:52:30Z</time>
      </trkpt>
      <trkpt lat="41.247525000" lon="0.925508000">
        <ele>468.10</ele>
        <time>2013-03-29T11:52:35Z</time>
      </trkpt>
      <trkpt lat="41.247408000" lon="0.925705000">
        <ele>469.20</ele>
        <time>2013-03-29T11:52:41Z</time>
      </trkpt>
      <trkpt lat="41.247572000" lon="0.925834000">
        <ele>469.70</ele>
        <time>2013-03-29T11:52:47Z</time>
      </trkpt>
      <trkpt lat="41.247642000" lon="0.926061000">
        <ele>470.00</ele>
        <time>2013-03-29T11:52:53Z</time>
      </trkpt>
      <trkpt lat="41.247617000" lon="0.926315000">
        <ele>468.70</ele>
        <time>2013-03-29T11:52:58Z</time>
      </trkpt>
      <trkpt lat="41.247629000" lon="0.926558000">
        <ele>468.80</ele>
        <time>2013-03-29T11:53:03Z</time>
      </trkpt>
      <trkpt lat="41.247652000" lon="0.926819000">
        <ele>469.20</ele>
        <time>2013-03-29T11:53:09Z</time>
      </trkpt>
      <trkpt lat="41.247665000" lon="0.927094000">
        <ele>468.90</ele>
        <time>2013-03-29T11:53:15Z</time>
      </trkpt>
      <trkpt lat="41.247634000" lon="0.927336000">
        <ele>468.20</ele>
        <time>2013-03-29T11:53:20Z</time>
      </trkpt>
      <trkpt lat="41.247564000" lon="0.927577000">
        <ele>468.30</ele>
        <time>2013-03-29T11:53:25Z</time>
      </trkpt>
      <trkpt lat="41.247516000" lon="0.927834000">
        <ele>467.30</ele>
        <time>2013-03-29T11:53:31Z</time>
      </trkpt>
      <trkpt lat="41.247530000" lon="0.928069000">
        <ele>465.60</ele>
        <time>2013-03-29T11:53:36Z</time>
      </trkpt>
      <trkpt lat="41.247722000" lon="0.927992000">
        <ele>466.90</ele>
        <time>2013-03-29T11:53:42Z</time>
      </trkpt>
      <trkpt lat="41.247920000" lon="0.927877000">
        <ele>468.00</ele>
        <time>2013-03-29T11:53:48Z</time>
      </trkpt>
      <trkpt lat="41.248111000" lon="0.927914000">
        <ele>468.50</ele>
        <time>2013-03-29T11:53:54Z</time>
      </trkpt>
      <trkpt lat="41.248267000" lon="0.928025000">
        <ele>471.00</ele>
        <time>2013-03-29T11:54:01Z</time>
      </trkpt>
      <trkpt lat="41.248415000" lon="0.928164000">
        <ele>472.90</ele>
        <time>2013-03-29T11:54:09Z</time>
      </trkpt>
      <trkpt lat="41.248576000" lon="0.928338000">
        <ele>472.10</ele>
        <time>2013-03-29T11:54:16Z</time>
      </trkpt>
      <trkpt lat="41.248742000" lon="0.928534000">
        <ele>471.40</ele>
        <time>2013-03-29T11:54:21Z</time>
      </trkpt>
      <trkpt lat="41.248892000" lon="0.928764000">
        <ele>470.70</ele>
        <time>2013-03-29T11:54:26Z</time>
      </trkpt>
      <trkpt lat="41.249021000" lon="0.928967000">
        <ele>470.50</ele>
        <time>2013-03-29T11:54:31Z</time>
      </trkpt>
      <trkpt lat="41.249095000" lon="0.929221000">
        <ele>470.30</ele>
        <time>2013-03-29T11:54:36Z</time>
      </trkpt>
      <trkpt lat="41.249012000" lon="0.929433000">
        <ele>470.20</ele>
        <time>2013-03-29T11:54:41Z</time>
      </trkpt>
      <trkpt lat="41.248887000" lon="0.929615000">
        <ele>470.30</ele>
        <time>2013-03-29T11:54:46Z</time>
      </trkpt>
      <trkpt lat="41.248775000" lon="0.929836000">
        <ele>469.60</ele>
        <time>2013-03-29T11:54:52Z</time>
      </trkpt>
      <trkpt lat="41.248866000" lon="0.930009000">
        <ele>467.50</ele>
        <time>2013-03-29T11:54:59Z</time>
      </trkpt>
      <trkpt lat="41.249053000" lon="0.929912000">
        <ele>464.90</ele>
        <time>2013-03-29T11:55:04Z</time>
      </trkpt>
      <trkpt lat="41.249257000" lon="0.929833000">
        <ele>464.30</ele>
        <time>2013-03-29T11:55:09Z</time>
      </trkpt>
      <trkpt lat="41.249446000" lon="0.929811000">
        <ele>465.80</ele>
        <time>2013-03-29T11:55:14Z</time>
      </trkpt>
      <trkpt lat="41.249648000" lon="0.929908000">
        <ele>467.00</ele>
        <time>2013-03-29T11:55:20Z</time>
      </trkpt>
      <trkpt lat="41.249810000" lon="0.930044000">
        <ele>466.90</ele>
        <time>2013-03-29T11:55:25Z</time>
      </trkpt>
      <trkpt lat="41.249972000" lon="0.930217000">
        <ele>466.30</ele>
        <time>2013-03-29T11:55:30Z</time>
      </trkpt>
      <trkpt lat="41.250131000" lon="0.930421000">
        <ele>466.30</ele>
        <time>2013-03-29T11:55:35Z</time>
      </trkpt>
      <trkpt lat="41.250275000" lon="0.930606000">
        <ele>466.10</ele>
        <time>2013-03-29T11:55:40Z</time>
      </trkpt>
      <trkpt lat="41.250441000" lon="0.930750000">
        <ele>467.30</ele>
        <time>2013-03-29T11:55:46Z</time>
      </trkpt>
      <trkpt lat="41.250613000" lon="0.930884000">
        <ele>468.30</ele>
        <time>2013-03-29T11:55:52Z</time>
      </trkpt>
      <trkpt lat="41.250778000" lon="0.931062000">
        <ele>468.90</ele>
        <time>2013-03-29T11:55:58Z</time>
      </trkpt>
      <trkpt lat="41.250942000" lon="0.931232000">
        <ele>469.20</ele>
        <time>2013-03-29T11:56:04Z</time>
      </trkpt>
      <trkpt lat="41.251050000" lon="0.931459000">
        <ele>468.70</ele>
        <time>2013-03-29T11:56:09Z</time>
      </trkpt>
      <trkpt lat="41.251145000" lon="0.931672000">
        <ele>468.80</ele>
        <time>2013-03-29T11:56:14Z</time>
      </trkpt>
      <trkpt lat="41.251151000" lon="0.931930000">
        <ele>468.70</ele>
        <time>2013-03-29T11:56:19Z</time>
      </trkpt>
      <trkpt lat="41.251172000" lon="0.932195000">
        <ele>469.20</ele>
        <time>2013-03-29T11:56:25Z</time>
      </trkpt>
      <trkpt lat="41.251236000" lon="0.932427000">
        <ele>470.10</ele>
        <time>2013-03-29T11:56:31Z</time>
      </trkpt>
      <trkpt lat="41.251311000" lon="0.932664000">
        <ele>470.00</ele>
        <time>2013-03-29T11:56:38Z</time>
      </trkpt>
      <trkpt lat="41.251370000" lon="0.932932000">
        <ele>466.30</ele>
        <time>2013-03-29T11:56:43Z</time>
      </trkpt>
      <trkpt lat="41.251504000" lon="0.933132000">
        <ele>466.30</ele>
        <time>2013-03-29T11:56:47Z</time>
      </trkpt>
      <trkpt lat="41.251673000" lon="0.933282000">
        <ele>467.40</ele>
        <time>2013-03-29T11:56:52Z</time>
      </trkpt>
      <trkpt lat="41.251831000" lon="0.933451000">
        <ele>468.50</ele>
        <time>2013-03-29T11:56:58Z</time>
      </trkpt>
      <trkpt lat="41.251983000" lon="0.933612000">
        <ele>469.40</ele>
        <time>2013-03-29T11:57:04Z</time>
      </trkpt>
      <trkpt lat="41.252133000" lon="0.933754000">
        <ele>470.80</ele>
        <time>2013-03-29T11:57:10Z</time>
      </trkpt>
      <trkpt lat="41.252301000" lon="0.933877000">
        <ele>471.80</ele>
        <time>2013-03-29T11:57:16Z</time>
      </trkpt>
      <trkpt lat="41.252489000" lon="0.933956000">
        <ele>473.60</ele>
        <time>2013-03-29T11:57:22Z</time>
      </trkpt>
      <trkpt lat="41.252604000" lon="0.934150000">
        <ele>475.00</ele>
        <time>2013-03-29T11:57:28Z</time>
      </trkpt>
      <trkpt lat="41.252741000" lon="0.934335000">
        <ele>475.60</ele>
        <time>2013-03-29T11:57:34Z</time>
      </trkpt>
      <trkpt lat="41.252888000" lon="0.934494000">
        <ele>474.50</ele>
        <time>2013-03-29T11:57:39Z</time>
      </trkpt>
      <trkpt lat="41.253054000" lon="0.934675000">
        <ele>475.30</ele>
        <time>2013-03-29T11:57:44Z</time>
      </trkpt>
      <trkpt lat="41.253222000" lon="0.934856000">
        <ele>475.50</ele>
        <time>2013-03-29T11:57:49Z</time>
      </trkpt>
      <trkpt lat="41.253354000" lon="0.935024000">
        <ele>476.10</ele>
        <time>2013-03-29T11:57:54Z</time>
      </trkpt>
      <trkpt lat="41.253490000" lon="0.935211000">
        <ele>475.40</ele>
        <time>2013-03-29T11:58:00Z</time>
      </trkpt>
      <trkpt lat="41.253523000" lon="0.935163000">
        <ele>475.20</ele>
        <time>2013-03-29T12:00:46Z</time>
      </trkpt>
      <trkpt lat="41.253530000" lon="0.934894000">
        <ele>470.80</ele>
        <time>2013-03-29T12:00:51Z</time>
      </trkpt>
      <trkpt lat="41.253375000" lon="0.934698000">
        <ele>467.60</ele>
        <time>2013-03-29T12:00:55Z</time>
      </trkpt>
      <trkpt lat="41.253299000" lon="0.934486000">
        <ele>466.00</ele>
        <time>2013-03-29T12:01:00Z</time>
      </trkpt>
      <trkpt lat="41.253487000" lon="0.934467000">
        <ele>464.70</ele>
        <time>2013-03-29T12:01:05Z</time>
      </trkpt>
      <trkpt lat="41.253672000" lon="0.934608000">
        <ele>465.00</ele>
        <time>2013-03-29T12:01:10Z</time>
      </trkpt>
      <trkpt lat="41.253752000" lon="0.934843000">
        <ele>466.10</ele>
        <time>2013-03-29T12:01:15Z</time>
      </trkpt>
      <trkpt lat="41.253742000" lon="0.935123000">
        <ele>466.40</ele>
        <time>2013-03-29T12:01:21Z</time>
      </trkpt>
      <trkpt lat="41.253693000" lon="0.935401000">
        <ele>465.90</ele>
        <time>2013-03-29T12:01:27Z</time>
      </trkpt>
      <trkpt lat="41.253687000" lon="0.935643000">
        <ele>463.60</ele>
        <time>2013-03-29T12:01:36Z</time>
      </trkpt>
      <trkpt lat="41.253676000" lon="0.935429000">
        <ele>465.20</ele>
        <time>2013-03-29T12:04:49Z</time>
      </trkpt>
      <trkpt lat="41.253750000" lon="0.935161000">
        <ele>465.80</ele>
        <time>2013-03-29T12:04:55Z</time>
      </trkpt>
      <trkpt lat="41.253760000" lon="0.934926000">
        <ele>465.20</ele>
        <time>2013-03-29T12:05:00Z</time>
      </trkpt>
      <trkpt lat="41.253696000" lon="0.934653000">
        <ele>462.80</ele>
        <time>2013-03-29T12:05:06Z</time>
      </trkpt>
      <trkpt lat="41.253552000" lon="0.934510000">
        <ele>463.30</ele>
        <time>2013-03-29T12:05:11Z</time>
      </trkpt>
      <trkpt lat="41.253378000" lon="0.934439000">
        <ele>463.90</ele>
        <time>2013-03-29T12:05:18Z</time>
      </trkpt>
      <trkpt lat="41.253305000" lon="0.934603000">
        <ele>466.70</ele>
        <time>2013-03-29T12:05:29Z</time>
      </trkpt>
      <trkpt lat="41.253458000" lon="0.934781000">
        <ele>469.60</ele>
        <time>2013-03-29T12:05:41Z</time>
      </trkpt>
      <trkpt lat="41.253569000" lon="0.934978000">
        <ele>472.00</ele>
        <time>2013-03-29T12:05:52Z</time>
      </trkpt>
      <trkpt lat="41.253517000" lon="0.935219000">
        <ele>474.90</ele>
        <time>2013-03-29T12:06:05Z</time>
      </trkpt>
      <trkpt lat="41.253470000" lon="0.935448000">
        <ele>479.30</ele>
        <time>2013-03-29T12:06:33Z</time>
      </trkpt>
      <trkpt lat="41.253373000" lon="0.935592000">
        <ele>485.70</ele>
        <time>2013-03-29T12:08:05Z</time>
      </trkpt>
      <trkpt lat="41.253369000" lon="0.935810000">
        <ele>490.20</ele>
        <time>2013-03-29T12:08:58Z</time>
      </trkpt>
      <trkpt lat="41.253268000" lon="0.936031000">
        <ele>490.20</ele>
        <time>2013-03-29T12:09:46Z</time>
      </trkpt>
      <trkpt lat="41.253215000" lon="0.936216000">
        <ele>490.20</ele>
        <time>2013-03-29T12:11:08Z</time>
      </trkpt>
      <trkpt lat="41.253127000" lon="0.936439000">
        <ele>487.30</ele>
        <time>2013-03-29T12:11:19Z</time>
      </trkpt>
      <trkpt lat="41.253091000" lon="0.936642000">
        <ele>480.40</ele>
        <time>2013-03-29T12:11:50Z</time>
      </trkpt>
      <trkpt lat="41.253236000" lon="0.936721000">
        <ele>475.20</ele>
        <time>2013-03-29T12:12:39Z</time>
      </trkpt>
      <trkpt lat="41.253383000" lon="0.936607000">
        <ele>469.70</ele>
        <time>2013-03-29T12:13:18Z</time>
      </trkpt>
      <trkpt lat="41.253444000" lon="0.936524000">
        <ele>466.40</ele>
        <time>2013-03-29T12:15:50Z</time>
      </trkpt>
      <trkpt lat="41.253586000" lon="0.936452000">
        <ele>465.90</ele>
        <time>2013-03-29T12:17:55Z</time>
      </trkpt>
      <trkpt lat="41.253689000" lon="0.936505000">
        <ele>464.60</ele>
        <time>2013-03-29T12:29:37Z</time>
      </trkpt>
      <trkpt lat="41.253825000" lon="0.936691000">
        <ele>466.80</ele>
        <time>2013-03-29T12:29:53Z</time>
      </trkpt>
      <trkpt lat="41.253845000" lon="0.936546000">
        <ele>469.10</ele>
        <time>2013-03-29T12:31:01Z</time>
      </trkpt>
      <trkpt lat="41.253874000" lon="0.936295000">
        <ele>470.50</ele>
        <time>2013-03-29T12:31:10Z</time>
      </trkpt>
      <trkpt lat="41.254044000" lon="0.936206000">
        <ele>474.20</ele>
        <time>2013-03-29T12:31:18Z</time>
      </trkpt>
      <trkpt lat="41.254193000" lon="0.936036000">
        <ele>476.20</ele>
        <time>2013-03-29T12:31:29Z</time>
      </trkpt>
      <trkpt lat="41.254331000" lon="0.935872000">
        <ele>477.60</ele>
        <time>2013-03-29T12:31:40Z</time>
      </trkpt>
      <trkpt lat="41.254441000" lon="0.935667000">
        <ele>476.60</ele>
        <time>2013-03-29T12:31:49Z</time>
      </trkpt>
      <trkpt lat="41.254458000" lon="0.935641000">
        <ele>477.10</ele>
        <time>2013-03-29T12:32:51Z</time>
      </trkpt>
      <trkpt lat="41.254354000" lon="0.935858000">
        <ele>476.90</ele>
        <time>2013-03-29T12:32:57Z</time>
      </trkpt>
      <trkpt lat="41.254347000" lon="0.936114000">
        <ele>477.80</ele>
        <time>2013-03-29T12:33:03Z</time>
      </trkpt>
      <trkpt lat="41.254387000" lon="0.936386000">
        <ele>481.70</ele>
        <time>2013-03-29T12:33:09Z</time>
      </trkpt>
      <trkpt lat="41.254519000" lon="0.936224000">
        <ele>482.80</ele>
        <time>2013-03-29T12:33:15Z</time>
      </trkpt>
      <trkpt lat="41.254576000" lon="0.935976000">
        <ele>484.00</ele>
        <time>2013-03-29T12:33:23Z</time>
      </trkpt>
      <trkpt lat="41.254689000" lon="0.935754000">
        <ele>483.30</ele>
        <time>2013-03-29T12:33:33Z</time>
      </trkpt>
      <trkpt lat="41.254714000" lon="0.935498000">
        <ele>483.30</ele>
        <time>2013-03-29T12:33:39Z</time>
      </trkpt>
      <trkpt lat="41.254735000" lon="0.935235000">
        <ele>483.30</ele>
        <time>2013-03-29T12:33:46Z</time>
      </trkpt>
      <trkpt lat="41.254674000" lon="0.934980000">
        <ele>482.50</ele>
        <time>2013-03-29T12:33:52Z</time>
      </trkpt>
      <trkpt lat="41.254613000" lon="0.934742000">
        <ele>482.90</ele>
        <time>2013-03-29T12:33:58Z</time>
      </trkpt>
      <trkpt lat="41.254535000" lon="0.934508000">
        <ele>482.80</ele>
        <time>2013-03-29T12:34:05Z</time>
      </trkpt>
      <trkpt lat="41.254444000" lon="0.934274000">
        <ele>482.80</ele>
        <time>2013-03-29T12:34:11Z</time>
      </trkpt>
      <trkpt lat="41.254477000" lon="0.934058000">
        <ele>483.40</ele>
        <time>2013-03-29T12:34:17Z</time>
      </trkpt>
      <trkpt lat="41.254558000" lon="0.933868000">
        <ele>484.30</ele>
        <time>2013-03-29T12:34:24Z</time>
      </trkpt>
      <trkpt lat="41.254385000" lon="0.933741000">
        <ele>483.60</ele>
        <time>2013-03-29T12:34:31Z</time>
      </trkpt>
      <trkpt lat="41.254229000" lon="0.933641000">
        <ele>483.00</ele>
        <time>2013-03-29T12:34:51Z</time>
      </trkpt>
      <trkpt lat="41.254024000" lon="0.933542000">
        <ele>482.10</ele>
        <time>2013-03-29T12:34:56Z</time>
      </trkpt>
      <trkpt lat="41.253963000" lon="0.933291000">
        <ele>482.60</ele>
        <time>2013-03-29T12:35:01Z</time>
      </trkpt>
      <trkpt lat="41.254006000" lon="0.932995000">
        <ele>482.80</ele>
        <time>2013-03-29T12:35:06Z</time>
      </trkpt>
      <trkpt lat="41.253825000" lon="0.932974000">
        <ele>483.20</ele>
        <time>2013-03-29T12:35:11Z</time>
      </trkpt>
      <trkpt lat="41.253609000" lon="0.932969000">
        <ele>482.10</ele>
        <time>2013-03-29T12:35:16Z</time>
      </trkpt>
      <trkpt lat="41.253475000" lon="0.932773000">
        <ele>482.40</ele>
        <time>2013-03-29T12:35:21Z</time>
      </trkpt>
      <trkpt lat="41.253339000" lon="0.932587000">
        <ele>482.80</ele>
        <time>2013-03-29T12:35:27Z</time>
      </trkpt>
      <trkpt lat="41.253218000" lon="0.932383000">
        <ele>482.10</ele>
        <time>2013-03-29T12:35:33Z</time>
      </trkpt>
      <trkpt lat="41.253146000" lon="0.932161000">
        <ele>481.50</ele>
        <time>2013-03-29T12:35:38Z</time>
      </trkpt>
      <trkpt lat="41.253102000" lon="0.931912000">
        <ele>480.30</ele>
        <time>2013-03-29T12:35:43Z</time>
      </trkpt>
      <trkpt lat="41.253018000" lon="0.931677000">
        <ele>480.00</ele>
        <time>2013-03-29T12:35:47Z</time>
      </trkpt>
      <trkpt lat="41.252920000" lon="0.931424000">
        <ele>481.10</ele>
        <time>2013-03-29T12:35:52Z</time>
      </trkpt>
      <trkpt lat="41.252789000" lon="0.931252000">
        <ele>482.00</ele>
        <time>2013-03-29T12:35:59Z</time>
      </trkpt>
      <trkpt lat="41.252646000" lon="0.931051000">
        <ele>480.10</ele>
        <time>2013-03-29T12:36:05Z</time>
      </trkpt>
      <trkpt lat="41.252627000" lon="0.930802000">
        <ele>482.10</ele>
        <time>2013-03-29T12:36:12Z</time>
      </trkpt>
      <trkpt lat="41.252637000" lon="0.930555000">
        <ele>484.20</ele>
        <time>2013-03-29T12:36:19Z</time>
      </trkpt>
      <trkpt lat="41.252621000" lon="0.930308000">
        <ele>486.40</ele>
        <time>2013-03-29T12:36:26Z</time>
      </trkpt>
      <trkpt lat="41.252535000" lon="0.930086000">
        <ele>489.80</ele>
        <time>2013-03-29T12:36:34Z</time>
      </trkpt>
      <trkpt lat="41.252419000" lon="0.929881000">
        <ele>491.90</ele>
        <time>2013-03-29T12:36:42Z</time>
      </trkpt>
      <trkpt lat="41.252322000" lon="0.929652000">
        <ele>493.30</ele>
        <time>2013-03-29T12:36:51Z</time>
      </trkpt>
      <trkpt lat="41.252370000" lon="0.929407000">
        <ele>493.40</ele>
        <time>2013-03-29T12:37:00Z</time>
      </trkpt>
      <trkpt lat="41.252511000" lon="0.929286000">
        <ele>494.40</ele>
        <time>2013-03-29T12:37:07Z</time>
      </trkpt>
      <trkpt lat="41.252593000" lon="0.929076000">
        <ele>495.50</ele>
        <time>2013-03-29T12:37:15Z</time>
      </trkpt>
      <trkpt lat="41.252481000" lon="0.928894000">
        <ele>496.70</ele>
        <time>2013-03-29T12:37:23Z</time>
      </trkpt>
      <trkpt lat="41.252309000" lon="0.928762000">
        <ele>497.80</ele>
        <time>2013-03-29T12:37:32Z</time>
      </trkpt>
      <trkpt lat="41.252143000" lon="0.928657000">
        <ele>499.90</ele>
        <time>2013-03-29T12:37:41Z</time>
      </trkpt>
      <trkpt lat="41.251945000" lon="0.928645000">
        <ele>500.60</ele>
        <time>2013-03-29T12:37:49Z</time>
      </trkpt>
      <trkpt lat="41.251752000" lon="0.928629000">
        <ele>501.40</ele>
        <time>2013-03-29T12:37:56Z</time>
      </trkpt>
      <trkpt lat="41.251594000" lon="0.928473000">
        <ele>500.90</ele>
        <time>2013-03-29T12:38:02Z</time>
      </trkpt>
      <trkpt lat="41.251540000" lon="0.928209000">
        <ele>502.70</ele>
        <time>2013-03-29T12:38:08Z</time>
      </trkpt>
      <trkpt lat="41.251434000" lon="0.927991000">
        <ele>501.20</ele>
        <time>2013-03-29T12:38:14Z</time>
      </trkpt>
      <trkpt lat="41.251257000" lon="0.927839000">
        <ele>499.50</ele>
        <time>2013-03-29T12:38:18Z</time>
      </trkpt>
      <trkpt lat="41.251126000" lon="0.927677000">
        <ele>498.20</ele>
        <time>2013-03-29T12:38:21Z</time>
      </trkpt>
      <trkpt lat="41.251067000" lon="0.927449000">
        <ele>495.10</ele>
        <time>2013-03-29T12:38:24Z</time>
      </trkpt>
      <trkpt lat="41.251108000" lon="0.927142000">
        <ele>495.20</ele>
        <time>2013-03-29T12:38:28Z</time>
      </trkpt>
      <trkpt lat="41.251091000" lon="0.926889000">
        <ele>493.10</ele>
        <time>2013-03-29T12:38:31Z</time>
      </trkpt>
      <trkpt lat="41.251089000" lon="0.926646000">
        <ele>492.00</ele>
        <time>2013-03-29T12:38:34Z</time>
      </trkpt>
      <trkpt lat="41.251107000" lon="0.926396000">
        <ele>490.70</ele>
        <time>2013-03-29T12:38:37Z</time>
      </trkpt>
      <trkpt lat="41.251259000" lon="0.926262000">
        <ele>492.30</ele>
        <time>2013-03-29T12:38:41Z</time>
      </trkpt>
      <trkpt lat="41.251480000" lon="0.926286000">
        <ele>491.30</ele>
        <time>2013-03-29T12:38:46Z</time>
      </trkpt>
      <trkpt lat="41.251678000" lon="0.926295000">
        <ele>492.00</ele>
        <time>2013-03-29T12:38:50Z</time>
      </trkpt>
      <trkpt lat="41.251865000" lon="0.926330000">
        <ele>493.00</ele>
        <time>2013-03-29T12:38:54Z</time>
      </trkpt>
      <trkpt lat="41.252085000" lon="0.926322000">
        <ele>493.70</ele>
        <time>2013-03-29T12:38:59Z</time>
      </trkpt>
      <trkpt lat="41.252275000" lon="0.926343000">
        <ele>495.20</ele>
        <time>2013-03-29T12:39:04Z</time>
      </trkpt>
      <trkpt lat="41.252457000" lon="0.926400000">
        <ele>497.60</ele>
        <time>2013-03-29T12:39:11Z</time>
      </trkpt>
      <trkpt lat="41.252638000" lon="0.926349000">
        <ele>498.50</ele>
        <time>2013-03-29T12:39:19Z</time>
      </trkpt>
      <trkpt lat="41.252804000" lon="0.926268000">
        <ele>500.20</ele>
        <time>2013-03-29T12:39:28Z</time>
      </trkpt>
      <trkpt lat="41.252743000" lon="0.926060000">
        <ele>501.20</ele>
        <time>2013-03-29T12:39:37Z</time>
      </trkpt>
      <trkpt lat="41.252612000" lon="0.925861000">
        <ele>503.70</ele>
        <time>2013-03-29T12:39:47Z</time>
      </trkpt>
      <trkpt lat="41.252530000" lon="0.925629000">
        <ele>506.40</ele>
        <time>2013-03-29T12:39:58Z</time>
      </trkpt>
      <trkpt lat="41.252485000" lon="0.925402000">
        <ele>509.90</ele>
        <time>2013-03-29T12:40:09Z</time>
      </trkpt>
      <trkpt lat="41.252604000" lon="0.925216000">
        <ele>511.90</ele>
        <time>2013-03-29T12:40:18Z</time>
      </trkpt>
      <trkpt lat="41.252737000" lon="0.925050000">
        <ele>513.70</ele>
        <time>2013-03-29T12:40:27Z</time>
      </trkpt>
      <trkpt lat="41.252819000" lon="0.924825000">
        <ele>517.10</ele>
        <time>2013-03-29T12:40:37Z</time>
      </trkpt>
      <trkpt lat="41.252796000" lon="0.924580000">
        <ele>518.80</ele>
        <time>2013-03-29T12:40:47Z</time>
      </trkpt>
      <trkpt lat="41.252812000" lon="0.924350000">
        <ele>522.00</ele>
        <time>2013-03-29T12:40:57Z</time>
      </trkpt>
      <trkpt lat="41.252891000" lon="0.924113000">
        <ele>524.80</ele>
        <time>2013-03-29T12:41:08Z</time>
      </trkpt>
      <trkpt lat="41.253030000" lon="0.923953000">
        <ele>526.00</ele>
        <time>2013-03-29T12:41:19Z</time>
      </trkpt>
      <trkpt lat="41.253193000" lon="0.923810000">
        <ele>527.80</ele>
        <time>2013-03-29T12:41:29Z</time>
      </trkpt>
      <trkpt lat="41.253297000" lon="0.923582000">
        <ele>528.90</ele>
        <time>2013-03-29T12:41:38Z</time>
      </trkpt>
      <trkpt lat="41.253241000" lon="0.923327000">
        <ele>528.60</ele>
        <time>2013-03-29T12:41:46Z</time>
      </trkpt>
      <trkpt lat="41.253210000" lon="0.923082000">
        <ele>529.40</ele>
        <time>2013-03-29T12:41:54Z</time>
      </trkpt>
      <trkpt lat="41.253312000" lon="0.922890000">
        <ele>529.80</ele>
        <time>2013-03-29T12:42:09Z</time>
      </trkpt>
      <trkpt lat="41.253382000" lon="0.922669000">
        <ele>530.40</ele>
        <time>2013-03-29T12:42:52Z</time>
      </trkpt>
      <trkpt lat="41.253415000" lon="0.922422000">
        <ele>531.40</ele>
        <time>2013-03-29T12:43:02Z</time>
      </trkpt>
      <trkpt lat="41.253458000" lon="0.922192000">
        <ele>529.80</ele>
        <time>2013-03-29T12:43:13Z</time>
      </trkpt>
      <trkpt lat="41.253590000" lon="0.922051000">
        <ele>530.70</ele>
        <time>2013-03-29T12:43:29Z</time>
      </trkpt>
      <trkpt lat="41.253440000" lon="0.922140000">
        <ele>530.80</ele>
        <time>2013-03-29T12:45:00Z</time>
      </trkpt>
      <trkpt lat="41.253227000" lon="0.922082000">
        <ele>528.30</ele>
        <time>2013-03-29T12:45:10Z</time>
      </trkpt>
      <trkpt lat="41.253044000" lon="0.921981000">
        <ele>526.20</ele>
        <time>2013-03-29T12:45:14Z</time>
      </trkpt>
      <trkpt lat="41.252886000" lon="0.921812000">
        <ele>523.00</ele>
        <time>2013-03-29T12:45:17Z</time>
      </trkpt>
      <trkpt lat="41.252792000" lon="0.921561000">
        <ele>517.40</ele>
        <time>2013-03-29T12:45:21Z</time>
      </trkpt>
      <trkpt lat="41.252922000" lon="0.921401000">
        <ele>514.90</ele>
        <time>2013-03-29T12:45:24Z</time>
      </trkpt>
      <trkpt lat="41.253072000" lon="0.921215000">
        <ele>514.20</ele>
        <time>2013-03-29T12:45:27Z</time>
      </trkpt>
      <trkpt lat="41.253061000" lon="0.920952000">
        <ele>514.70</ele>
        <time>2013-03-29T12:45:30Z</time>
      </trkpt>
      <trkpt lat="41.252979000" lon="0.920703000">
        <ele>513.80</ele>
        <time>2013-03-29T12:45:33Z</time>
      </trkpt>
      <trkpt lat="41.253034000" lon="0.920456000">
        <ele>513.50</ele>
        <time>2013-03-29T12:45:37Z</time>
      </trkpt>
      <trkpt lat="41.253262000" lon="0.920406000">
        <ele>512.80</ele>
        <time>2013-03-29T12:45:41Z</time>
      </trkpt>
      <trkpt lat="41.253438000" lon="0.920342000">
        <ele>512.10</ele>
        <time>2013-03-29T12:45:44Z</time>
      </trkpt>
      <trkpt lat="41.253571000" lon="0.920565000">
        <ele>511.50</ele>
        <time>2013-03-29T12:45:49Z</time>
      </trkpt>
      <trkpt lat="41.253591000" lon="0.920825000">
        <ele>510.00</ele>
        <time>2013-03-29T12:45:53Z</time>
      </trkpt>
      <trkpt lat="41.253655000" lon="0.921085000">
        <ele>508.30</ele>
        <time>2013-03-29T12:45:57Z</time>
      </trkpt>
      <trkpt lat="41.253780000" lon="0.921284000">
        <ele>505.60</ele>
        <time>2013-03-29T12:46:03Z</time>
      </trkpt>
      <trkpt lat="41.253908000" lon="0.921478000">
        <ele>503.90</ele>
        <time>2013-03-29T12:46:08Z</time>
      </trkpt>
      <trkpt lat="41.254032000" lon="0.921722000">
        <ele>503.40</ele>
        <time>2013-03-29T12:46:13Z</time>
      </trkpt>
      <trkpt lat="41.254137000" lon="0.921951000">
        <ele>501.50</ele>
        <time>2013-03-29T12:46:19Z</time>
      </trkpt>
      <trkpt lat="41.254300000" lon="0.922128000">
        <ele>498.40</ele>
        <time>2013-03-29T12:46:23Z</time>
      </trkpt>
      <trkpt lat="41.254474000" lon="0.922247000">
        <ele>498.00</ele>
        <time>2013-03-29T12:46:28Z</time>
      </trkpt>
      <trkpt lat="41.254666000" lon="0.922349000">
        <ele>495.70</ele>
        <time>2013-03-29T12:46:35Z</time>
      </trkpt>
      <trkpt lat="41.254888000" lon="0.922487000">
        <ele>491.90</ele>
        <time>2013-03-29T12:46:39Z</time>
      </trkpt>
      <trkpt lat="41.255054000" lon="0.922631000">
        <ele>490.60</ele>
        <time>2013-03-29T12:46:42Z</time>
      </trkpt>
      <trkpt lat="41.255173000" lon="0.922810000">
        <ele>489.40</ele>
        <time>2013-03-29T12:46:46Z</time>
      </trkpt>
      <trkpt lat="41.255180000" lon="0.922579000">
        <ele>485.10</ele>
        <time>2013-03-29T12:46:52Z</time>
      </trkpt>
      <trkpt lat="41.255083000" lon="0.922319000">
        <ele>482.90</ele>
        <time>2013-03-29T12:46:56Z</time>
      </trkpt>
      <trkpt lat="41.254933000" lon="0.922072000">
        <ele>479.30</ele>
        <time>2013-03-29T12:47:00Z</time>
      </trkpt>
      <trkpt lat="41.254798000" lon="0.921887000">
        <ele>477.60</ele>
        <time>2013-03-29T12:47:03Z</time>
      </trkpt>
      <trkpt lat="41.254633000" lon="0.921702000">
        <ele>473.60</ele>
        <time>2013-03-29T12:47:06Z</time>
      </trkpt>
      <trkpt lat="41.254441000" lon="0.921524000">
        <ele>472.70</ele>
        <time>2013-03-29T12:47:09Z</time>
      </trkpt>
      <trkpt lat="41.254313000" lon="0.921283000">
        <ele>471.80</ele>
        <time>2013-03-29T12:47:12Z</time>
      </trkpt>
      <trkpt lat="41.254296000" lon="0.921019000">
        <ele>472.30</ele>
        <time>2013-03-29T12:47:15Z</time>
      </trkpt>
      <trkpt lat="41.254311000" lon="0.920721000">
        <ele>470.50</ele>
        <time>2013-03-29T12:47:19Z</time>
      </trkpt>
      <trkpt lat="41.254195000" lon="0.920432000">
        <ele>466.50</ele>
        <time>2013-03-29T12:47:23Z</time>
      </trkpt>
      <trkpt lat="41.254126000" lon="0.920142000">
        <ele>464.90</ele>
        <time>2013-03-29T12:47:27Z</time>
      </trkpt>
      <trkpt lat="41.254209000" lon="0.920035000">
        <ele>462.30</ele>
        <time>2013-03-29T12:47:34Z</time>
      </trkpt>
      <trkpt lat="41.254202000" lon="0.920112000">
        <ele>463.30</ele>
        <time>2013-03-29T12:48:09Z</time>
      </trkpt>
      <trkpt lat="41.254338000" lon="0.920178000">
        <ele>462.10</ele>
        <time>2013-03-29T12:50:26Z</time>
      </trkpt>
      <trkpt lat="41.254507000" lon="0.920211000">
        <ele>464.20</ele>
        <time>2013-03-29T12:51:18Z</time>
      </trkpt>
      <trkpt lat="41.254681000" lon="0.920225000">
        <ele>467.00</ele>
        <time>2013-03-29T12:51:28Z</time>
      </trkpt>
      <trkpt lat="41.254872000" lon="0.920260000">
        <ele>469.30</ele>
        <time>2013-03-29T12:51:38Z</time>
      </trkpt>
      <trkpt lat="41.255051000" lon="0.920133000">
        <ele>471.60</ele>
        <time>2013-03-29T12:52:28Z</time>
      </trkpt>
      <trkpt lat="41.255200000" lon="0.919989000">
        <ele>474.40</ele>
        <time>2013-03-29T12:52:37Z</time>
      </trkpt>
      <trkpt lat="41.255343000" lon="0.919828000">
        <ele>476.30</ele>
        <time>2013-03-29T12:52:52Z</time>
      </trkpt>
      <trkpt lat="41.255528000" lon="0.919895000">
        <ele>476.00</ele>
        <time>2013-03-29T12:53:02Z</time>
      </trkpt>
      <trkpt lat="41.255681000" lon="0.919775000">
        <ele>480.80</ele>
        <time>2013-03-29T12:53:10Z</time>
      </trkpt>
      <trkpt lat="41.255850000" lon="0.919688000">
        <ele>482.70</ele>
        <time>2013-03-29T12:53:22Z</time>
      </trkpt>
      <trkpt lat="41.256021000" lon="0.919622000">
        <ele>480.30</ele>
        <time>2013-03-29T12:53:33Z</time>
      </trkpt>
      <trkpt lat="41.256226000" lon="0.919575000">
        <ele>477.40</ele>
        <time>2013-03-29T12:53:37Z</time>
      </trkpt>
      <trkpt lat="41.256436000" lon="0.919547000">
        <ele>475.10</ele>
        <time>2013-03-29T12:53:40Z</time>
      </trkpt>
      <trkpt lat="41.256611000" lon="0.919597000">
        <ele>478.30</ele>
        <time>2013-03-29T12:53:44Z</time>
      </trkpt>
      <trkpt lat="41.256791000" lon="0.919632000">
        <ele>480.80</ele>
        <time>2013-03-29T12:53:51Z</time>
      </trkpt>
      <trkpt lat="41.256899000" lon="0.919466000">
        <ele>482.50</ele>
        <time>2013-03-29T12:54:00Z</time>
      </trkpt>
      <trkpt lat="41.256772000" lon="0.919281000">
        <ele>483.60</ele>
        <time>2013-03-29T12:54:15Z</time>
      </trkpt>
      <trkpt lat="41.256643000" lon="0.919110000">
        <ele>485.60</ele>
        <time>2013-03-29T12:54:24Z</time>
      </trkpt>
      <trkpt lat="41.256557000" lon="0.918902000">
        <ele>486.20</ele>
        <time>2013-03-29T12:54:33Z</time>
      </trkpt>
      <trkpt lat="41.256574000" lon="0.918674000">
        <ele>487.50</ele>
        <time>2013-03-29T12:54:45Z</time>
      </trkpt>
      <trkpt lat="41.256580000" lon="0.918422000">
        <ele>487.50</ele>
        <time>2013-03-29T12:54:56Z</time>
      </trkpt>
      <trkpt lat="41.256519000" lon="0.918190000">
        <ele>486.50</ele>
        <time>2013-03-29T12:55:12Z</time>
      </trkpt>
      <trkpt lat="41.256477000" lon="0.917948000">
        <ele>485.90</ele>
        <time>2013-03-29T12:55:25Z</time>
      </trkpt>
      <trkpt lat="41.256459000" lon="0.917708000">
        <ele>484.00</ele>
        <time>2013-03-29T12:55:35Z</time>
      </trkpt>
      <trkpt lat="41.256342000" lon="0.917445000">
        <ele>478.80</ele>
        <time>2013-03-29T12:55:40Z</time>
      </trkpt>
      <trkpt lat="41.256380000" lon="0.917193000">
        <ele>474.60</ele>
        <time>2013-03-29T12:55:43Z</time>
      </trkpt>
      <trkpt lat="41.256523000" lon="0.917029000">
        <ele>473.70</ele>
        <time>2013-03-29T12:55:47Z</time>
      </trkpt>
      <trkpt lat="41.256731000" lon="0.917201000">
        <ele>468.40</ele>
        <time>2013-03-29T12:55:51Z</time>
      </trkpt>
      <trkpt lat="41.256914000" lon="0.917161000">
        <ele>470.20</ele>
        <time>2013-03-29T12:55:55Z</time>
      </trkpt>
      <trkpt lat="41.257067000" lon="0.917021000">
        <ele>470.40</ele>
        <time>2013-03-29T12:56:00Z</time>
      </trkpt>
      <trkpt lat="41.257273000" lon="0.917012000">
        <ele>468.00</ele>
        <time>2013-03-29T12:56:05Z</time>
      </trkpt>
      <trkpt lat="41.257429000" lon="0.917142000">
        <ele>467.10</ele>
        <time>2013-03-29T12:56:08Z</time>
      </trkpt>
      <trkpt lat="41.257579000" lon="0.917008000">
        <ele>468.50</ele>
        <time>2013-03-29T12:56:12Z</time>
      </trkpt>
      <trkpt lat="41.257683000" lon="0.916773000">
        <ele>469.40</ele>
        <time>2013-03-29T12:56:18Z</time>
      </trkpt>
      <trkpt lat="41.257861000" lon="0.916793000">
        <ele>469.50</ele>
        <time>2013-03-29T12:56:23Z</time>
      </trkpt>
      <trkpt lat="41.258038000" lon="0.917006000">
        <ele>467.60</ele>
        <time>2013-03-29T12:56:28Z</time>
      </trkpt>
      <trkpt lat="41.258193000" lon="0.917140000">
        <ele>464.30</ele>
        <time>2013-03-29T12:56:31Z</time>
      </trkpt>
      <trkpt lat="41.258377000" lon="0.917066000">
        <ele>462.70</ele>
        <time>2013-03-29T12:56:34Z</time>
      </trkpt>
      <trkpt lat="41.258450000" lon="0.916823000">
        <ele>465.50</ele>
        <time>2013-03-29T12:56:38Z</time>
      </trkpt>
      <trkpt lat="41.258504000" lon="0.916572000">
        <ele>467.90</ele>
        <time>2013-03-29T12:56:43Z</time>
      </trkpt>
      <trkpt lat="41.258662000" lon="0.916430000">
        <ele>466.70</ele>
        <time>2013-03-29T12:56:49Z</time>
      </trkpt>
      <trkpt lat="41.258851000" lon="0.916465000">
        <ele>465.50</ele>
        <time>2013-03-29T12:56:57Z</time>
      </trkpt>
      <trkpt lat="41.259026000" lon="0.916628000">
        <ele>466.60</ele>
        <time>2013-03-29T12:57:03Z</time>
      </trkpt>
      <trkpt lat="41.259153000" lon="0.916818000">
        <ele>466.80</ele>
        <time>2013-03-29T12:57:09Z</time>
      </trkpt>
      <trkpt lat="41.259173000" lon="0.917127000">
        <ele>463.10</ele>
        <time>2013-03-29T12:57:14Z</time>
      </trkpt>
      <trkpt lat="41.259228000" lon="0.917420000">
        <ele>463.70</ele>
        <time>2013-03-29T12:57:18Z</time>
      </trkpt>
      <trkpt lat="41.259307000" lon="0.917644000">
        <ele>464.20</ele>
        <time>2013-03-29T12:57:22Z</time>
      </trkpt>
      <trkpt lat="41.259402000" lon="0.917859000">
        <ele>466.20</ele>
        <time>2013-03-29T12:57:27Z</time>
      </trkpt>
      <trkpt lat="41.259542000" lon="0.918050000">
        <ele>466.70</ele>
        <time>2013-03-29T12:57:33Z</time>
      </trkpt>
      <trkpt lat="41.259687000" lon="0.918206000">
        <ele>465.00</ele>
        <time>2013-03-29T12:57:37Z</time>
      </trkpt>
      <trkpt lat="41.259797000" lon="0.918438000">
        <ele>465.20</ele>
        <time>2013-03-29T12:57:41Z</time>
      </trkpt>
      <trkpt lat="41.259845000" lon="0.918685000">
        <ele>469.00</ele>
        <time>2013-03-29T12:57:46Z</time>
      </trkpt>
      <trkpt lat="41.259878000" lon="0.918934000">
        <ele>471.70</ele>
        <time>2013-03-29T12:57:52Z</time>
      </trkpt>
      <trkpt lat="41.259942000" lon="0.919161000">
        <ele>473.20</ele>
        <time>2013-03-29T12:58:00Z</time>
      </trkpt>
      <trkpt lat="41.260096000" lon="0.919317000">
        <ele>472.70</ele>
        <time>2013-03-29T12:58:08Z</time>
      </trkpt>
      <trkpt lat="41.260271000" lon="0.919439000">
        <ele>471.30</ele>
        <time>2013-03-29T12:58:14Z</time>
      </trkpt>
      <trkpt lat="41.260460000" lon="0.919594000">
        <ele>467.20</ele>
        <time>2013-03-29T12:58:18Z</time>
      </trkpt>
      <trkpt lat="41.260669000" lon="0.919695000">
        <ele>464.40</ele>
        <time>2013-03-29T12:58:21Z</time>
      </trkpt>
      <trkpt lat="41.260869000" lon="0.919763000">
        <ele>465.10</ele>
        <time>2013-03-29T12:58:24Z</time>
      </trkpt>
      <trkpt lat="41.261075000" lon="0.919811000">
        <ele>466.90</ele>
        <time>2013-03-29T12:58:28Z</time>
      </trkpt>
      <trkpt lat="41.261269000" lon="0.919862000">
        <ele>468.00</ele>
        <time>2013-03-29T12:58:33Z</time>
      </trkpt>
      <trkpt lat="41.261470000" lon="0.919963000">
        <ele>468.20</ele>
        <time>2013-03-29T12:58:39Z</time>
      </trkpt>
      <trkpt lat="41.261642000" lon="0.919929000">
        <ele>469.00</ele>
        <time>2013-03-29T12:58:46Z</time>
      </trkpt>
      <trkpt lat="41.261858000" lon="0.919808000">
        <ele>465.90</ele>
        <time>2013-03-29T12:58:51Z</time>
      </trkpt>
      <trkpt lat="41.262056000" lon="0.919754000">
        <ele>464.40</ele>
        <time>2013-03-29T12:58:54Z</time>
      </trkpt>
      <trkpt lat="41.262212000" lon="0.919612000">
        <ele>463.00</ele>
        <time>2013-03-29T12:58:58Z</time>
      </trkpt>
      <trkpt lat="41.262160000" lon="0.919365000">
        <ele>463.30</ele>
        <time>2013-03-29T12:59:17Z</time>
      </trkpt>
      <trkpt lat="41.262020000" lon="0.919207000">
        <ele>465.20</ele>
        <time>2013-03-29T12:59:44Z</time>
      </trkpt>
      <trkpt lat="41.261848000" lon="0.919093000">
        <ele>466.30</ele>
        <time>2013-03-29T12:59:52Z</time>
      </trkpt>
      <trkpt lat="41.261666000" lon="0.918996000">
        <ele>466.80</ele>
        <time>2013-03-29T13:00:02Z</time>
      </trkpt>
      <trkpt lat="41.261457000" lon="0.918961000">
        <ele>466.00</ele>
        <time>2013-03-29T13:00:09Z</time>
      </trkpt>
      <trkpt lat="41.261266000" lon="0.918926000">
        <ele>466.20</ele>
        <time>2013-03-29T13:00:14Z</time>
      </trkpt>
      <trkpt lat="41.261066000" lon="0.918852000">
        <ele>464.50</ele>
        <time>2013-03-29T13:00:19Z</time>
      </trkpt>
      <trkpt lat="41.260938000" lon="0.918665000">
        <ele>465.70</ele>
        <time>2013-03-29T13:00:23Z</time>
      </trkpt>
      <trkpt lat="41.260837000" lon="0.918417000">
        <ele>467.50</ele>
        <time>2013-03-29T13:00:29Z</time>
      </trkpt>
      <trkpt lat="41.260730000" lon="0.918203000">
        <ele>466.40</ele>
        <time>2013-03-29T13:00:34Z</time>
      </trkpt>
      <trkpt lat="41.260602000" lon="0.917987000">
        <ele>466.60</ele>
        <time>2013-03-29T13:00:39Z</time>
      </trkpt>
      <trkpt lat="41.260449000" lon="0.917776000">
        <ele>466.10</ele>
        <time>2013-03-29T13:00:44Z</time>
      </trkpt>
      <trkpt lat="41.260354000" lon="0.917567000">
        <ele>468.30</ele>
        <time>2013-03-29T13:00:50Z</time>
      </trkpt>
      <trkpt lat="41.260287000" lon="0.917334000">
        <ele>469.30</ele>
        <time>2013-03-29T13:00:57Z</time>
      </trkpt>
      <trkpt lat="41.260198000" lon="0.917097000">
        <ele>469.80</ele>
        <time>2013-03-29T13:01:04Z</time>
      </trkpt>
      <trkpt lat="41.260172000" lon="0.916841000">
        <ele>468.10</ele>
        <time>2013-03-29T13:01:10Z</time>
      </trkpt>
      <trkpt lat="41.260265000" lon="0.916621000">
        <ele>467.20</ele>
        <time>2013-03-29T13:01:15Z</time>
      </trkpt>
      <trkpt lat="41.260149000" lon="0.916487000">
        <ele>467.90</ele>
        <time>2013-03-29T13:01:20Z</time>
      </trkpt>
      <trkpt lat="41.259960000" lon="0.916438000">
        <ele>469.20</ele>
        <time>2013-03-29T13:01:26Z</time>
      </trkpt>
      <trkpt lat="41.259877000" lon="0.916206000">
        <ele>468.00</ele>
        <time>2013-03-29T13:01:32Z</time>
      </trkpt>
      <trkpt lat="41.259782000" lon="0.915965000">
        <ele>468.30</ele>
        <time>2013-03-29T13:01:38Z</time>
      </trkpt>
      <trkpt lat="41.259671000" lon="0.915775000">
        <ele>467.60</ele>
        <time>2013-03-29T13:01:44Z</time>
      </trkpt>
      <trkpt lat="41.259605000" lon="0.915530000">
        <ele>466.90</ele>
        <time>2013-03-29T13:01:49Z</time>
      </trkpt>
      <trkpt lat="41.259738000" lon="0.915370000">
        <ele>467.20</ele>
        <time>2013-03-29T13:01:54Z</time>
      </trkpt>
      <trkpt lat="41.259806000" lon="0.915138000">
        <ele>467.70</ele>
        <time>2013-03-29T13:02:00Z</time>
      </trkpt>
      <trkpt lat="41.259961000" lon="0.914986000">
        <ele>469.70</ele>
        <time>2013-03-29T13:02:07Z</time>
      </trkpt>
      <trkpt lat="41.260139000" lon="0.914904000">
        <ele>472.70</ele>
        <time>2013-03-29T13:02:14Z</time>
      </trkpt>
      <trkpt lat="41.260309000" lon="0.914780000">
        <ele>475.00</ele>
        <time>2013-03-29T13:02:22Z</time>
      </trkpt>
      <trkpt lat="41.260438000" lon="0.914590000">
        <ele>476.40</ele>
        <time>2013-03-29T13:02:30Z</time>
      </trkpt>
      <trkpt lat="41.260580000" lon="0.914436000">
        <ele>477.60</ele>
        <time>2013-03-29T13:02:39Z</time>
      </trkpt>
      <trkpt lat="41.260709000" lon="0.914254000">
        <ele>479.50</ele>
        <time>2013-03-29T13:02:48Z</time>
      </trkpt>
      <trkpt lat="41.260847000" lon="0.914090000">
        <ele>481.80</ele>
        <time>2013-03-29T13:02:59Z</time>
      </trkpt>
      <trkpt lat="41.260980000" lon="0.913940000">
        <ele>483.70</ele>
        <time>2013-03-29T13:03:45Z</time>
      </trkpt>
      <trkpt lat="41.261112000" lon="0.913771000">
        <ele>486.00</ele>
        <time>2013-03-29T13:03:56Z</time>
      </trkpt>
      <trkpt lat="41.261263000" lon="0.913616000">
        <ele>487.40</ele>
        <time>2013-03-29T13:04:07Z</time>
      </trkpt>
      <trkpt lat="41.261400000" lon="0.913440000">
        <ele>490.00</ele>
        <time>2013-03-29T13:04:20Z</time>
      </trkpt>
      <trkpt lat="41.261550000" lon="0.913288000">
        <ele>491.10</ele>
        <time>2013-03-29T13:04:30Z</time>
      </trkpt>
      <trkpt lat="41.261707000" lon="0.913174000">
        <ele>492.50</ele>
        <time>2013-03-29T13:04:40Z</time>
      </trkpt>
      <trkpt lat="41.261848000" lon="0.913019000">
        <ele>493.50</ele>
        <time>2013-03-29T13:04:50Z</time>
      </trkpt>
      <trkpt lat="41.261974000" lon="0.912813000">
        <ele>495.70</ele>
        <time>2013-03-29T13:05:01Z</time>
      </trkpt>
      <trkpt lat="41.262131000" lon="0.912663000">
        <ele>497.90</ele>
        <time>2013-03-29T13:05:12Z</time>
      </trkpt>
      <trkpt lat="41.262284000" lon="0.912540000">
        <ele>500.70</ele>
        <time>2013-03-29T13:05:23Z</time>
      </trkpt>
      <trkpt lat="41.262448000" lon="0.912473000">
        <ele>503.80</ele>
        <time>2013-03-29T13:05:36Z</time>
      </trkpt>
      <trkpt lat="41.262607000" lon="0.912356000">
        <ele>506.80</ele>
        <time>2013-03-29T13:06:21Z</time>
      </trkpt>
      <trkpt lat="41.262776000" lon="0.912282000">
        <ele>510.00</ele>
        <time>2013-03-29T13:06:35Z</time>
      </trkpt>
      <trkpt lat="41.262958000" lon="0.912316000">
        <ele>512.90</ele>
        <time>2013-03-29T13:06:50Z</time>
      </trkpt>
      <trkpt lat="41.263145000" lon="0.912367000">
        <ele>516.40</ele>
        <time>2013-03-29T13:07:06Z</time>
      </trkpt>
      <trkpt lat="41.263347000" lon="0.912363000">
        <ele>519.60</ele>
        <time>2013-03-29T13:07:20Z</time>
      </trkpt>
      <trkpt lat="41.263501000" lon="0.912286000">
        <ele>521.40</ele>
        <time>2013-03-29T13:10:16Z</time>
      </trkpt>
      <trkpt lat="41.263671000" lon="0.912148000">
        <ele>521.30</ele>
        <time>2013-03-29T13:10:25Z</time>
      </trkpt>
      <trkpt lat="41.263830000" lon="0.912019000">
        <ele>520.40</ele>
        <time>2013-03-29T13:10:34Z</time>
      </trkpt>
      <trkpt lat="41.264003000" lon="0.911881000">
        <ele>518.00</ele>
        <time>2013-03-29T13:10:39Z</time>
      </trkpt>
      <trkpt lat="41.264166000" lon="0.911728000">
        <ele>514.50</ele>
        <time>2013-03-29T13:10:42Z</time>
      </trkpt>
      <trkpt lat="41.264383000" lon="0.911584000">
        <ele>512.40</ele>
        <time>2013-03-29T13:10:45Z</time>
      </trkpt>
      <trkpt lat="41.264581000" lon="0.911381000">
        <ele>511.10</ele>
        <time>2013-03-29T13:10:48Z</time>
      </trkpt>
      <trkpt lat="41.264752000" lon="0.911147000">
        <ele>510.30</ele>
        <time>2013-03-29T13:10:51Z</time>
      </trkpt>
      <trkpt lat="41.264872000" lon="0.910904000">
        <ele>510.70</ele>
        <time>2013-03-29T13:10:54Z</time>
      </trkpt>
      <trkpt lat="41.264937000" lon="0.910652000">
        <ele>511.00</ele>
        <time>2013-03-29T13:10:57Z</time>
      </trkpt>
      <trkpt lat="41.265027000" lon="0.910399000">
        <ele>512.10</ele>
        <time>2013-03-29T13:11:01Z</time>
      </trkpt>
      <trkpt lat="41.265135000" lon="0.910189000">
        <ele>512.00</ele>
        <time>2013-03-29T13:11:06Z</time>
      </trkpt>
      <trkpt lat="41.265224000" lon="0.909998000">
        <ele>512.60</ele>
        <time>2013-03-29T13:11:18Z</time>
      </trkpt>
      <trkpt lat="41.265379000" lon="0.909881000">
        <ele>513.10</ele>
        <time>2013-03-29T13:11:26Z</time>
      </trkpt>
      <trkpt lat="41.265551000" lon="0.909773000">
        <ele>513.50</ele>
        <time>2013-03-29T13:11:35Z</time>
      </trkpt>
      <trkpt lat="41.265688000" lon="0.909694000">
        <ele>513.80</ele>
        <time>2013-03-29T13:12:05Z</time>
      </trkpt>
      <trkpt lat="41.265516000" lon="0.909766000">
        <ele>514.10</ele>
        <time>2013-03-29T13:12:46Z</time>
      </trkpt>
      <trkpt lat="41.265360000" lon="0.909900000">
        <ele>513.60</ele>
        <time>2013-03-29T13:12:56Z</time>
      </trkpt>
      <trkpt lat="41.265188000" lon="0.910043000">
        <ele>512.50</ele>
        <time>2013-03-29T13:13:02Z</time>
      </trkpt>
      <trkpt lat="41.265022000" lon="0.910175000">
        <ele>511.90</ele>
        <time>2013-03-29T13:13:06Z</time>
      </trkpt>
      <trkpt lat="41.264830000" lon="0.910321000">
        <ele>510.70</ele>
        <time>2013-03-29T13:13:10Z</time>
      </trkpt>
      <trkpt lat="41.264638000" lon="0.910467000">
        <ele>510.40</ele>
        <time>2013-03-29T13:13:14Z</time>
      </trkpt>
      <trkpt lat="41.264450000" lon="0.910616000">
        <ele>510.30</ele>
        <time>2013-03-29T13:13:18Z</time>
      </trkpt>
      <trkpt lat="41.264256000" lon="0.910762000">
        <ele>510.20</ele>
        <time>2013-03-29T13:13:22Z</time>
      </trkpt>
      <trkpt lat="41.264063000" lon="0.910913000">
        <ele>510.00</ele>
        <time>2013-03-29T13:13:26Z</time>
      </trkpt>
      <trkpt lat="41.263871000" lon="0.911058000">
        <ele>509.60</ele>
        <time>2013-03-29T13:13:30Z</time>
      </trkpt>
      <trkpt lat="41.263691000" lon="0.911199000">
        <ele>509.50</ele>
        <time>2013-03-29T13:13:34Z</time>
      </trkpt>
      <trkpt lat="41.263510000" lon="0.911304000">
        <ele>509.30</ele>
        <time>2013-03-29T13:13:38Z</time>
      </trkpt>
      <trkpt lat="41.263338000" lon="0.911392000">
        <ele>509.10</ele>
        <time>2013-03-29T13:13:42Z</time>
      </trkpt>
      <trkpt lat="41.263145000" lon="0.911460000">
        <ele>509.10</ele>
        <time>2013-03-29T13:13:48Z</time>
      </trkpt>
      <trkpt lat="41.262951000" lon="0.911494000">
        <ele>509.10</ele>
        <time>2013-03-29T13:13:54Z</time>
      </trkpt>
      <trkpt lat="41.262783000" lon="0.911550000">
        <ele>508.40</ele>
        <time>2013-03-29T13:14:03Z</time>
      </trkpt>
      <trkpt lat="41.262573000" lon="0.911605000">
        <ele>507.80</ele>
        <time>2013-03-29T13:14:09Z</time>
      </trkpt>
      <trkpt lat="41.262387000" lon="0.911689000">
        <ele>507.40</ele>
        <time>2013-03-29T13:14:16Z</time>
      </trkpt>
      <trkpt lat="41.262203000" lon="0.911805000">
        <ele>506.30</ele>
        <time>2013-03-29T13:15:13Z</time>
      </trkpt>
      <trkpt lat="41.262014000" lon="0.911950000">
        <ele>505.60</ele>
        <time>2013-03-29T13:15:18Z</time>
      </trkpt>
      <trkpt lat="41.261823000" lon="0.912099000">
        <ele>504.70</ele>
        <time>2013-03-29T13:15:22Z</time>
      </trkpt>
      <trkpt lat="41.261610000" lon="0.912266000">
        <ele>503.90</ele>
        <time>2013-03-29T13:15:26Z</time>
      </trkpt>
      <trkpt lat="41.261441000" lon="0.912401000">
        <ele>502.80</ele>
        <time>2013-03-29T13:15:29Z</time>
      </trkpt>
      <trkpt lat="41.261268000" lon="0.912542000">
        <ele>501.90</ele>
        <time>2013-03-29T13:15:32Z</time>
      </trkpt>
      <trkpt lat="41.261086000" lon="0.912685000">
        <ele>501.30</ele>
        <time>2013-03-29T13:15:35Z</time>
      </trkpt>
      <trkpt lat="41.260908000" lon="0.912842000">
        <ele>500.00</ele>
        <time>2013-03-29T13:15:38Z</time>
      </trkpt>
      <trkpt lat="41.260730000" lon="0.913023000">
        <ele>499.90</ele>
        <time>2013-03-29T13:15:41Z</time>
      </trkpt>
      <trkpt lat="41.260559000" lon="0.913228000">
        <ele>499.10</ele>
        <time>2013-03-29T13:15:44Z</time>
      </trkpt>
      <trkpt lat="41.260378000" lon="0.913430000">
        <ele>497.90</ele>
        <time>2013-03-29T13:15:47Z</time>
      </trkpt>
      <trkpt lat="41.260200000" lon="0.913637000">
        <ele>497.50</ele>
        <time>2013-03-29T13:15:50Z</time>
      </trkpt>
      <trkpt lat="41.260020000" lon="0.913830000">
        <ele>496.40</ele>
        <time>2013-03-29T13:15:53Z</time>
      </trkpt>
      <trkpt lat="41.259821000" lon="0.914018000">
        <ele>494.70</ele>
        <time>2013-03-29T13:15:56Z</time>
      </trkpt>
      <trkpt lat="41.259598000" lon="0.914195000">
        <ele>493.40</ele>
        <time>2013-03-29T13:15:59Z</time>
      </trkpt>
      <trkpt lat="41.259372000" lon="0.914366000">
        <ele>491.90</ele>
        <time>2013-03-29T13:16:02Z</time>
      </trkpt>
      <trkpt lat="41.259116000" lon="0.914446000">
        <ele>490.10</ele>
        <time>2013-03-29T13:16:05Z</time>
      </trkpt>
      <trkpt lat="41.258933000" lon="0.914396000">
        <ele>488.60</ele>
        <time>2013-03-29T13:16:07Z</time>
      </trkpt>
      <trkpt lat="41.258747000" lon="0.914359000">
        <ele>486.70</ele>
        <time>2013-03-29T13:16:09Z</time>
      </trkpt>
      <trkpt lat="41.258551000" lon="0.914350000">
        <ele>484.90</ele>
        <time>2013-03-29T13:16:11Z</time>
      </trkpt>
      <trkpt lat="41.258354000" lon="0.914343000">
        <ele>484.40</ele>
        <time>2013-03-29T13:16:13Z</time>
      </trkpt>
      <trkpt lat="41.258149000" lon="0.914324000">
        <ele>482.50</ele>
        <time>2013-03-29T13:16:15Z</time>
      </trkpt>
      <trkpt lat="41.257937000" lon="0.914315000">
        <ele>480.40</ele>
        <time>2013-03-29T13:16:17Z</time>
      </trkpt>
      <trkpt lat="41.257721000" lon="0.914310000">
        <ele>479.00</ele>
        <time>2013-03-29T13:16:19Z</time>
      </trkpt>
      <trkpt lat="41.257496000" lon="0.914306000">
        <ele>477.30</ele>
        <time>2013-03-29T13:16:21Z</time>
      </trkpt>
      <trkpt lat="41.257264000" lon="0.914311000">
        <ele>475.80</ele>
        <time>2013-03-29T13:16:23Z</time>
      </trkpt>
      <trkpt lat="41.257037000" lon="0.914316000">
        <ele>474.60</ele>
        <time>2013-03-29T13:16:25Z</time>
      </trkpt>
      <trkpt lat="41.256817000" lon="0.914317000">
        <ele>472.60</ele>
        <time>2013-03-29T13:16:27Z</time>
      </trkpt>
      <trkpt lat="41.256610000" lon="0.914299000">
        <ele>470.70</ele>
        <time>2013-03-29T13:16:29Z</time>
      </trkpt>
      <trkpt lat="41.256442000" lon="0.914192000">
        <ele>471.00</ele>
        <time>2013-03-29T13:16:31Z</time>
      </trkpt>
      <trkpt lat="41.256353000" lon="0.913983000">
        <ele>471.40</ele>
        <time>2013-03-29T13:16:33Z</time>
      </trkpt>
      <trkpt lat="41.256379000" lon="0.913642000">
        <ele>472.90</ele>
        <time>2013-03-29T13:16:36Z</time>
      </trkpt>
      <trkpt lat="41.256410000" lon="0.913300000">
        <ele>472.30</ele>
        <time>2013-03-29T13:16:39Z</time>
      </trkpt>
      <trkpt lat="41.256277000" lon="0.913016000">
        <ele>471.80</ele>
        <time>2013-03-29T13:16:42Z</time>
      </trkpt>
      <trkpt lat="41.256040000" lon="0.912983000">
        <ele>473.00</ele>
        <time>2013-03-29T13:16:45Z</time>
      </trkpt>
      <trkpt lat="41.255847000" lon="0.913149000">
        <ele>472.90</ele>
        <time>2013-03-29T13:16:48Z</time>
      </trkpt>
      <trkpt lat="41.255633000" lon="0.913241000">
        <ele>471.80</ele>
        <time>2013-03-29T13:16:51Z</time>
      </trkpt>
      <trkpt lat="41.255417000" lon="0.913139000">
        <ele>472.30</ele>
        <time>2013-03-29T13:16:54Z</time>
      </trkpt>
      <trkpt lat="41.255232000" lon="0.912998000">
        <ele>472.30</ele>
        <time>2013-03-29T13:16:57Z</time>
      </trkpt>
      <trkpt lat="41.255128000" lon="0.912808000">
        <ele>472.90</ele>
        <time>2013-03-29T13:17:00Z</time>
      </trkpt>
      <trkpt lat="41.255112000" lon="0.912543000">
        <ele>473.00</ele>
        <time>2013-03-29T13:17:04Z</time>
      </trkpt>
      <trkpt lat="41.255120000" lon="0.912298000">
        <ele>472.60</ele>
        <time>2013-03-29T13:17:08Z</time>
      </trkpt>
      <trkpt lat="41.255104000" lon="0.912063000">
        <ele>472.80</ele>
        <time>2013-03-29T13:17:12Z</time>
      </trkpt>
      <trkpt lat="41.255084000" lon="0.911794000">
        <ele>473.50</ele>
        <time>2013-03-29T13:17:18Z</time>
      </trkpt>
      <trkpt lat="41.255074000" lon="0.911540000">
        <ele>474.10</ele>
        <time>2013-03-29T13:17:24Z</time>
      </trkpt>
      <trkpt lat="41.255055000" lon="0.911286000">
        <ele>474.80</ele>
        <time>2013-03-29T13:17:31Z</time>
      </trkpt>
      <trkpt lat="41.255020000" lon="0.911039000">
        <ele>475.60</ele>
        <time>2013-03-29T13:17:39Z</time>
      </trkpt>
      <trkpt lat="41.254912000" lon="0.910818000">
        <ele>475.40</ele>
        <time>2013-03-29T13:17:46Z</time>
      </trkpt>
      <trkpt lat="41.254748000" lon="0.910647000">
        <ele>475.00</ele>
        <time>2013-03-29T13:17:53Z</time>
      </trkpt>
      <trkpt lat="41.254601000" lon="0.910475000">
        <ele>474.50</ele>
        <time>2013-03-29T13:17:58Z</time>
      </trkpt>
      <trkpt lat="41.254439000" lon="0.910270000">
        <ele>474.00</ele>
        <time>2013-03-29T13:18:03Z</time>
      </trkpt>
      <trkpt lat="41.254299000" lon="0.910111000">
        <ele>474.10</ele>
        <time>2013-03-29T13:18:07Z</time>
      </trkpt>
      <trkpt lat="41.254099000" lon="0.909965000">
        <ele>474.20</ele>
        <time>2013-03-29T13:18:12Z</time>
      </trkpt>
      <trkpt lat="41.253880000" lon="0.909922000">
        <ele>474.40</ele>
        <time>2013-03-29T13:18:17Z</time>
      </trkpt>
      <trkpt lat="41.253708000" lon="0.909959000">
        <ele>474.40</ele>
        <time>2013-03-29T13:18:26Z</time>
      </trkpt>
      <trkpt lat="41.253522000" lon="0.910067000">
        <ele>473.30</ele>
        <time>2013-03-29T13:18:33Z</time>
      </trkpt>
      <trkpt lat="41.253351000" lon="0.910219000">
        <ele>473.90</ele>
        <time>2013-03-29T13:18:39Z</time>
      </trkpt>
      <trkpt lat="41.253152000" lon="0.910273000">
        <ele>473.10</ele>
        <time>2013-03-29T13:18:46Z</time>
      </trkpt>
      <trkpt lat="41.252974000" lon="0.910270000">
        <ele>473.30</ele>
        <time>2013-03-29T13:18:51Z</time>
      </trkpt>
      <trkpt lat="41.252774000" lon="0.910233000">
        <ele>473.30</ele>
        <time>2013-03-29T13:18:57Z</time>
      </trkpt>
      <trkpt lat="41.252577000" lon="0.910173000">
        <ele>474.10</ele>
        <time>2013-03-29T13:19:03Z</time>
      </trkpt>
      <trkpt lat="41.252384000" lon="0.910147000">
        <ele>474.10</ele>
        <time>2013-03-29T13:19:09Z</time>
      </trkpt>
      <trkpt lat="41.252225000" lon="0.910149000">
        <ele>474.40</ele>
        <time>2013-03-29T13:19:18Z</time>
      </trkpt>
      <trkpt lat="41.252330000" lon="0.910105000">
        <ele>474.50</ele>
        <time>2013-03-29T13:19:36Z</time>
      </trkpt>
      <trkpt lat="41.252149000" lon="0.910105000">
        <ele>474.80</ele>
        <time>2013-03-29T13:21:03Z</time>
      </trkpt>
      <trkpt lat="41.252257000" lon="0.910140000">
        <ele>474.70</ele>
        <time>2013-03-29T13:21:15Z</time>
      </trkpt>
      <trkpt lat="41.252448000" lon="0.910069000">
        <ele>474.70</ele>
        <time>2013-03-29T13:21:23Z</time>
      </trkpt>
      <trkpt lat="41.252629000" lon="0.910027000">
        <ele>476.70</ele>
        <time>2013-03-29T13:21:31Z</time>
      </trkpt>
      <trkpt lat="41.252826000" lon="0.910099000">
        <ele>478.40</ele>
        <time>2013-03-29T13:21:40Z</time>
      </trkpt>
      <trkpt lat="41.253006000" lon="0.910056000">
        <ele>480.60</ele>
        <time>2013-03-29T13:21:49Z</time>
      </trkpt>
      <trkpt lat="41.253184000" lon="0.910039000">
        <ele>482.10</ele>
        <time>2013-03-29T13:21:58Z</time>
      </trkpt>
      <trkpt lat="41.253360000" lon="0.909952000">
        <ele>484.20</ele>
        <time>2013-03-29T13:22:08Z</time>
      </trkpt>
      <trkpt lat="41.253493000" lon="0.909779000">
        <ele>485.90</ele>
        <time>2013-03-29T13:22:20Z</time>
      </trkpt>
      <trkpt lat="41.253678000" lon="0.909726000">
        <ele>487.10</ele>
        <time>2013-03-29T13:22:31Z</time>
      </trkpt>
      <trkpt lat="41.253862000" lon="0.909669000">
        <ele>489.20</ele>
        <time>2013-03-29T13:22:41Z</time>
      </trkpt>
      <trkpt lat="41.254048000" lon="0.909681000">
        <ele>490.40</ele>
        <time>2013-03-29T13:22:51Z</time>
      </trkpt>
      <trkpt lat="41.254225000" lon="0.909678000">
        <ele>492.90</ele>
        <time>2013-03-29T13:23:01Z</time>
      </trkpt>
      <trkpt lat="41.254409000" lon="0.909658000">
        <ele>497.70</ele>
        <time>2013-03-29T13:23:13Z</time>
      </trkpt>
      <trkpt lat="41.254593000" lon="0.909763000">
        <ele>499.00</ele>
        <time>2013-03-29T13:23:25Z</time>
      </trkpt>
      <trkpt lat="41.254737000" lon="0.909928000">
        <ele>501.80</ele>
        <time>2013-03-29T13:23:38Z</time>
      </trkpt>
      <trkpt lat="41.254872000" lon="0.910084000">
        <ele>504.90</ele>
        <time>2013-03-29T13:23:52Z</time>
      </trkpt>
      <trkpt lat="41.255024000" lon="0.910090000">
        <ele>508.90</ele>
        <time>2013-03-29T13:24:28Z</time>
      </trkpt>
      <trkpt lat="41.255203000" lon="0.910073000">
        <ele>512.90</ele>
        <time>2013-03-29T13:24:59Z</time>
      </trkpt>
      <trkpt lat="41.255387000" lon="0.910045000">
        <ele>516.00</ele>
        <time>2013-03-29T13:25:22Z</time>
      </trkpt>
      <trkpt lat="41.255569000" lon="0.909994000">
        <ele>518.80</ele>
        <time>2013-03-29T13:25:36Z</time>
      </trkpt>
      <trkpt lat="41.255773000" lon="0.909965000">
        <ele>521.20</ele>
        <time>2013-03-29T13:25:48Z</time>
      </trkpt>
      <trkpt lat="41.255958000" lon="0.909997000">
        <ele>522.30</ele>
        <time>2013-03-29T13:25:59Z</time>
      </trkpt>
      <trkpt lat="41.256125000" lon="0.909984000">
        <ele>522.70</ele>
        <time>2013-03-29T13:26:14Z</time>
      </trkpt>
      <trkpt lat="41.256007000" lon="0.909988000">
        <ele>523.00</ele>
        <time>2013-03-29T13:26:30Z</time>
      </trkpt>
      <trkpt lat="41.255823000" lon="0.909907000">
        <ele>524.70</ele>
        <time>2013-03-29T13:26:56Z</time>
      </trkpt>
      <trkpt lat="41.255659000" lon="0.909821000">
        <ele>527.00</ele>
        <time>2013-03-29T13:27:59Z</time>
      </trkpt>
      <trkpt lat="41.255479000" lon="0.909759000">
        <ele>528.80</ele>
        <time>2013-03-29T13:28:11Z</time>
      </trkpt>
      <trkpt lat="41.255252000" lon="0.909673000">
        <ele>530.20</ele>
        <time>2013-03-29T13:28:25Z</time>
      </trkpt>
      <trkpt lat="41.255082000" lon="0.909481000">
        <ele>531.40</ele>
        <time>2013-03-29T13:28:57Z</time>
      </trkpt>
      <trkpt lat="41.254964000" lon="0.909285000">
        <ele>530.60</ele>
        <time>2013-03-29T13:29:04Z</time>
      </trkpt>
      <trkpt lat="41.254777000" lon="0.909111000">
        <ele>529.20</ele>
        <time>2013-03-29T13:29:09Z</time>
      </trkpt>
      <trkpt lat="41.254568000" lon="0.909007000">
        <ele>527.00</ele>
        <time>2013-03-29T13:29:13Z</time>
      </trkpt>
      <trkpt lat="41.254367000" lon="0.908961000">
        <ele>522.80</ele>
        <time>2013-03-29T13:29:16Z</time>
      </trkpt>
      <trkpt lat="41.254131000" lon="0.908932000">
        <ele>519.20</ele>
        <time>2013-03-29T13:29:19Z</time>
      </trkpt>
      <trkpt lat="41.253946000" lon="0.908930000">
        <ele>515.70</ele>
        <time>2013-03-29T13:29:21Z</time>
      </trkpt>
      <trkpt lat="41.253681000" lon="0.908884000">
        <ele>516.40</ele>
        <time>2013-03-29T13:29:24Z</time>
      </trkpt>
      <trkpt lat="41.253448000" lon="0.908803000">
        <ele>515.60</ele>
        <time>2013-03-29T13:29:27Z</time>
      </trkpt>
      <trkpt lat="41.253242000" lon="0.908688000">
        <ele>513.60</ele>
        <time>2013-03-29T13:29:30Z</time>
      </trkpt>
      <trkpt lat="41.253082000" lon="0.908490000">
        <ele>511.80</ele>
        <time>2013-03-29T13:29:33Z</time>
      </trkpt>
      <trkpt lat="41.252962000" lon="0.908258000">
        <ele>512.10</ele>
        <time>2013-03-29T13:29:36Z</time>
      </trkpt>
      <trkpt lat="41.252869000" lon="0.908015000">
        <ele>512.10</ele>
        <time>2013-03-29T13:29:39Z</time>
      </trkpt>
      <trkpt lat="41.252792000" lon="0.907806000">
        <ele>512.50</ele>
        <time>2013-03-29T13:29:46Z</time>
      </trkpt>
      <trkpt lat="41.252735000" lon="0.907582000">
        <ele>511.40</ele>
        <time>2013-03-29T13:29:55Z</time>
      </trkpt>
      <trkpt lat="41.252694000" lon="0.907342000">
        <ele>509.20</ele>
        <time>2013-03-29T13:29:59Z</time>
      </trkpt>
      <trkpt lat="41.252567000" lon="0.907092000">
        <ele>508.30</ele>
        <time>2013-03-29T13:30:03Z</time>
      </trkpt>
      <trkpt lat="41.252415000" lon="0.906848000">
        <ele>506.70</ele>
        <time>2013-03-29T13:30:07Z</time>
      </trkpt>
      <trkpt lat="41.252274000" lon="0.906670000">
        <ele>506.10</ele>
        <time>2013-03-29T13:30:10Z</time>
      </trkpt>
      <trkpt lat="41.252117000" lon="0.906519000">
        <ele>504.80</ele>
        <time>2013-03-29T13:30:13Z</time>
      </trkpt>
      <trkpt lat="41.251955000" lon="0.906391000">
        <ele>503.30</ele>
        <time>2013-03-29T13:30:16Z</time>
      </trkpt>
      <trkpt lat="41.251725000" lon="0.906416000">
        <ele>501.40</ele>
        <time>2013-03-29T13:30:20Z</time>
      </trkpt>
      <trkpt lat="41.251547000" lon="0.906542000">
        <ele>500.50</ele>
        <time>2013-03-29T13:30:25Z</time>
      </trkpt>
      <trkpt lat="41.251431000" lon="0.906475000">
        <ele>498.40</ele>
        <time>2013-03-29T13:30:33Z</time>
      </trkpt>
      <trkpt lat="41.251412000" lon="0.906180000">
        <ele>495.10</ele>
        <time>2013-03-29T13:30:38Z</time>
      </trkpt>
      <trkpt lat="41.251332000" lon="0.905953000">
        <ele>493.10</ele>
        <time>2013-03-29T13:30:42Z</time>
      </trkpt>
      <trkpt lat="41.251157000" lon="0.905843000">
        <ele>491.80</ele>
        <time>2013-03-29T13:30:47Z</time>
      </trkpt>
      <trkpt lat="41.250973000" lon="0.905837000">
        <ele>491.30</ele>
        <time>2013-03-29T13:30:51Z</time>
      </trkpt>
      <trkpt lat="41.250767000" lon="0.905805000">
        <ele>491.60</ele>
        <time>2013-03-29T13:30:56Z</time>
      </trkpt>
      <trkpt lat="41.250554000" lon="0.905726000">
        <ele>491.70</ele>
        <time>2013-03-29T13:31:01Z</time>
      </trkpt>
      <trkpt lat="41.250364000" lon="0.905654000">
        <ele>490.70</ele>
        <time>2013-03-29T13:31:05Z</time>
      </trkpt>
      <trkpt lat="41.250175000" lon="0.905638000">
        <ele>489.90</ele>
        <time>2013-03-29T13:31:09Z</time>
      </trkpt>
      <trkpt lat="41.249968000" lon="0.905596000">
        <ele>489.30</ele>
        <time>2013-03-29T13:31:13Z</time>
      </trkpt>
      <trkpt lat="41.249779000" lon="0.905548000">
        <ele>488.50</ele>
        <time>2013-03-29T13:31:17Z</time>
      </trkpt>
      <trkpt lat="41.249598000" lon="0.905450000">
        <ele>487.50</ele>
        <time>2013-03-29T13:31:22Z</time>
      </trkpt>
      <trkpt lat="41.249412000" lon="0.905403000">
        <ele>486.00</ele>
        <time>2013-03-29T13:31:27Z</time>
      </trkpt>
      <trkpt lat="41.249225000" lon="0.905450000">
        <ele>481.00</ele>
        <time>2013-03-29T13:31:34Z</time>
      </trkpt>
      <trkpt lat="41.249050000" lon="0.905441000">
        <ele>477.40</ele>
        <time>2013-03-29T13:31:42Z</time>
      </trkpt>
      <trkpt lat="41.248868000" lon="0.905328000">
        <ele>471.20</ele>
        <time>2013-03-29T13:31:55Z</time>
      </trkpt>
      <trkpt lat="41.248683000" lon="0.905181000">
        <ele>466.20</ele>
        <time>2013-03-29T13:32:00Z</time>
      </trkpt>
      <trkpt lat="41.248475000" lon="0.905039000">
        <ele>464.50</ele>
        <time>2013-03-29T13:32:04Z</time>
      </trkpt>
      <trkpt lat="41.248285000" lon="0.905038000">
        <ele>463.60</ele>
        <time>2013-03-29T13:32:08Z</time>
      </trkpt>
      <trkpt lat="41.248105000" lon="0.904965000">
        <ele>463.00</ele>
        <time>2013-03-29T13:32:12Z</time>
      </trkpt>
      <trkpt lat="41.247965000" lon="0.904810000">
        <ele>461.50</ele>
        <time>2013-03-29T13:32:16Z</time>
      </trkpt>
      <trkpt lat="41.247813000" lon="0.904672000">
        <ele>459.60</ele>
        <time>2013-03-29T13:32:24Z</time>
      </trkpt>
      <trkpt lat="41.247678000" lon="0.904516000">
        <ele>453.20</ele>
        <time>2013-03-29T13:32:34Z</time>
      </trkpt>
      <trkpt lat="41.247545000" lon="0.904372000">
        <ele>447.70</ele>
        <time>2013-03-29T13:32:45Z</time>
      </trkpt>
      <trkpt lat="41.247343000" lon="0.904404000">
        <ele>446.60</ele>
        <time>2013-03-29T13:32:54Z</time>
      </trkpt>
      <trkpt lat="41.247121000" lon="0.904436000">
        <ele>444.70</ele>
        <time>2013-03-29T13:32:59Z</time>
      </trkpt>
      <trkpt lat="41.246920000" lon="0.904378000">
        <ele>442.60</ele>
        <time>2013-03-29T13:33:03Z</time>
      </trkpt>
      <trkpt lat="41.246689000" lon="0.904330000">
        <ele>441.90</ele>
        <time>2013-03-29T13:33:07Z</time>
      </trkpt>
      <trkpt lat="41.246505000" lon="0.904234000">
        <ele>443.40</ele>
        <time>2013-03-29T13:33:13Z</time>
      </trkpt>
      <trkpt lat="41.246288000" lon="0.904256000">
        <ele>443.50</ele>
        <time>2013-03-29T13:33:19Z</time>
      </trkpt>
      <trkpt lat="41.246083000" lon="0.904187000">
        <ele>439.80</ele>
        <time>2013-03-29T13:33:23Z</time>
      </trkpt>
      <trkpt lat="41.245866000" lon="0.904089000">
        <ele>439.90</ele>
        <time>2013-03-29T13:33:27Z</time>
      </trkpt>
      <trkpt lat="41.245678000" lon="0.903932000">
        <ele>437.60</ele>
        <time>2013-03-29T13:33:32Z</time>
      </trkpt>
      <trkpt lat="41.245559000" lon="0.903724000">
        <ele>433.10</ele>
        <time>2013-03-29T13:33:36Z</time>
      </trkpt>
      <trkpt lat="41.245504000" lon="0.903487000">
        <ele>431.40</ele>
        <time>2013-03-29T13:33:39Z</time>
      </trkpt>
      <trkpt lat="41.245474000" lon="0.903222000">
        <ele>429.70</ele>
        <time>2013-03-29T13:33:42Z</time>
      </trkpt>
      <trkpt lat="41.245510000" lon="0.902964000">
        <ele>428.30</ele>
        <time>2013-03-29T13:33:45Z</time>
      </trkpt>
      <trkpt lat="41.245541000" lon="0.902721000">
        <ele>428.60</ele>
        <time>2013-03-29T13:33:48Z</time>
      </trkpt>
      <trkpt lat="41.245582000" lon="0.902473000">
        <ele>426.40</ele>
        <time>2013-03-29T13:33:51Z</time>
      </trkpt>
      <trkpt lat="41.245611000" lon="0.902223000">
        <ele>426.00</ele>
        <time>2013-03-29T13:33:54Z</time>
      </trkpt>
      <trkpt lat="41.245589000" lon="0.901950000">
        <ele>423.80</ele>
        <time>2013-03-29T13:33:58Z</time>
      </trkpt>
      <trkpt lat="41.245524000" lon="0.901707000">
        <ele>421.80</ele>
        <time>2013-03-29T13:34:01Z</time>
      </trkpt>
      <trkpt lat="41.245373000" lon="0.901467000">
        <ele>419.20</ele>
        <time>2013-03-29T13:34:05Z</time>
      </trkpt>
      <trkpt lat="41.245207000" lon="0.901360000">
        <ele>417.00</ele>
        <time>2013-03-29T13:34:08Z</time>
      </trkpt>
      <trkpt lat="41.245052000" lon="0.901189000">
        <ele>413.90</ele>
        <time>2013-03-29T13:34:11Z</time>
      </trkpt>
      <trkpt lat="41.244840000" lon="0.901170000">
        <ele>413.30</ele>
        <time>2013-03-29T13:34:15Z</time>
      </trkpt>
      <trkpt lat="41.244603000" lon="0.901157000">
        <ele>409.70</ele>
        <time>2013-03-29T13:34:19Z</time>
      </trkpt>
      <trkpt lat="41.244398000" lon="0.901208000">
        <ele>408.80</ele>
        <time>2013-03-29T13:34:22Z</time>
      </trkpt>
      <trkpt lat="41.244214000" lon="0.901246000">
        <ele>409.40</ele>
        <time>2013-03-29T13:34:25Z</time>
      </trkpt>
      <trkpt lat="41.243983000" lon="0.901231000">
        <ele>408.20</ele>
        <time>2013-03-29T13:34:29Z</time>
      </trkpt>
      <trkpt lat="41.243794000" lon="0.901219000">
        <ele>407.00</ele>
        <time>2013-03-29T13:34:32Z</time>
      </trkpt>
      <trkpt lat="41.243619000" lon="0.901258000">
        <ele>407.90</ele>
        <time>2013-03-29T13:34:37Z</time>
      </trkpt>
      <trkpt lat="41.243529000" lon="0.901495000">
        <ele>410.20</ele>
        <time>2013-03-29T13:34:46Z</time>
      </trkpt>
      <trkpt lat="41.243553000" lon="0.901702000">
        <ele>411.70</ele>
        <time>2013-03-29T13:34:54Z</time>
      </trkpt>
      <trkpt lat="41.243722000" lon="0.901586000">
        <ele>414.90</ele>
        <time>2013-03-29T13:35:03Z</time>
      </trkpt>
    </trkseg>
  </trk>
</gpx>
